﻿<?xml version="1.0" encoding="utf-8"?><gpx creator="Garmin Desktop App" version="1.1" xsi:schemaLocation="http://www.topografix.com/GPX/1/1 http://www.topografix.com/GPX/1/1/gpx.xsd http://www.garmin.com/xmlschemas/WaypointExtension/v1 http://www8.garmin.com/xmlschemas/WaypointExtensionv1.xsd http://www.garmin.com/xmlschemas/TrackPointExtension/v1 http://www.garmin.com/xmlschemas/TrackPointExtensionv1.xsd http://www.garmin.com/xmlschemas/GpxExtensions/v3 http://www8.garmin.com/xmlschemas/GpxExtensionsv3.xsd http://www.garmin.com/xmlschemas/ActivityExtension/v1 http://www8.garmin.com/xmlschemas/ActivityExtensionv1.xsd http://www.garmin.com/xmlschemas/AdventuresExtensions/v1 http://www8.garmin.com/xmlschemas/AdventuresExtensionv1.xsd http://www.garmin.com/xmlschemas/PressureExtension/v1 http://www.garmin.com/xmlschemas/PressureExtensionv1.xsd http://www.garmin.com/xmlschemas/TripExtensions/v1 http://www.garmin.com/xmlschemas/TripExtensionsv1.xsd http://www.garmin.com/xmlschemas/TripMetaDataExtensions/v1 http://www.garmin.com/xmlschemas/TripMetaDataExtensionsv1.xsd http://www.garmin.com/xmlschemas/ViaPointTransportationModeExtensions/v1 http://www.garmin.com/xmlschemas/ViaPointTransportationModeExtensionsv1.xsd http://www.garmin.com/xmlschemas/CreationTimeExtension/v1 http://www.garmin.com/xmlschemas/CreationTimeExtensionsv1.xsd http://www.garmin.com/xmlschemas/AccelerationExtension/v1 http://www.garmin.com/xmlschemas/AccelerationExtensionv1.xsd http://www.garmin.com/xmlschemas/PowerExtension/v1 http://www.garmin.com/xmlschemas/PowerExtensionv1.xsd http://www.garmin.com/xmlschemas/VideoExtension/v1 http://www.garmin.com/xmlschemas/VideoExtensionv1.xsd" xmlns="http://www.topografix.com/GPX/1/1" xmlns:xsi="http://www.w3.org/2001/XMLSchema-instance" xmlns:wptx1="http://www.garmin.com/xmlschemas/WaypointExtension/v1" xmlns:gpxtrx="http://www.garmin.com/xmlschemas/GpxExtensions/v3" xmlns:gpxtpx="http://www.garmin.com/xmlschemas/TrackPointExtension/v1" xmlns:gpxx="http://www.garmin.com/xmlschemas/GpxExtensions/v3" xmlns:trp="http://www.garmin.com/xmlschemas/TripExtensions/v1" xmlns:adv="http://www.garmin.com/xmlschemas/AdventuresExtensions/v1" xmlns:prs="http://www.garmin.com/xmlschemas/PressureExtension/v1" xmlns:tmd="http://www.garmin.com/xmlschemas/TripMetaDataExtensions/v1" xmlns:vptm="http://www.garmin.com/xmlschemas/ViaPointTransportationModeExtensions/v1" xmlns:ctx="http://www.garmin.com/xmlschemas/CreationTimeExtension/v1" xmlns:gpxacc="http://www.garmin.com/xmlschemas/AccelerationExtension/v1" xmlns:gpxpx="http://www.garmin.com/xmlschemas/PowerExtension/v1" xmlns:vidx1="http://www.garmin.com/xmlschemas/VideoExtension/v1">

  <metadata>
    <link href="http://www.garmin.com">
      <text>Garmin International</text>
    </link>
    <time>2024-02-21T14:40:47Z</time>
    <bounds maxlat="50.692104510962963" maxlon="6.202527126297355" minlat="50.523430025205016" minlon="6.106204390525818" />
  </metadata>

  <trk>
    <name>EIF1 Ruitzhof53 Rattenhaus25- 37 km</name>
    <extensions>
      <gpxx:TrackExtension>
        <gpxx:DisplayColor>Blue</gpxx:DisplayColor>
      </gpxx:TrackExtension>
    </extensions>
    <trkseg>
      <trkpt lat="50.523430025205016" lon="6.202527126297355">
        <ele>519.75999999999999</ele>
        <time>2023-05-25T08:36:23Z</time>
      </trkpt>
      <trkpt lat="50.523567572236061" lon="6.201122319325805">
        <ele>550.36000000000001</ele>
        <time>2023-05-24T21:48:36Z</time>
      </trkpt>
      <trkpt lat="50.523617779836059" lon="6.201133299618959">
        <ele>508.18000000000001</ele>
        <time>2023-05-24T21:19:44Z</time>
      </trkpt>
      <trkpt lat="50.523936459794641" lon="6.201841402798891">
        <ele>504.92000000000002</ele>
        <time>2023-05-24T20:30:26Z</time>
      </trkpt>
      <trkpt lat="50.523481154814363" lon="6.200933726504445">
        <ele>538.00999999999999</ele>
        <time>2023-05-24T16:58:45Z</time>
      </trkpt>
      <trkpt lat="50.523724900558591" lon="6.200916124507785">
        <ele>539.16999999999996</ele>
        <time>2023-05-24T15:29:01Z</time>
      </trkpt>
      <trkpt lat="50.523563884198666" lon="6.200444977730513">
        <ele>542.12</ele>
        <time>2023-05-24T15:28:01Z</time>
      </trkpt>
      <trkpt lat="50.523738143965602" lon="6.199789680540562">
        <ele>546.11000000000001</ele>
        <time>2023-05-24T15:27:25Z</time>
      </trkpt>
      <trkpt lat="50.523878959938884" lon="6.199105717241764">
        <ele>548.00999999999999</ele>
        <time>2023-05-24T15:26:49Z</time>
      </trkpt>
      <trkpt lat="50.523955570533872" lon="6.197586162015796">
        <ele>549.84000000000003</ele>
        <time>2023-05-24T15:25:33Z</time>
      </trkpt>
      <trkpt lat="50.523990439251065" lon="6.196743194013834">
        <ele>551.75999999999999</ele>
        <time>2023-05-24T15:24:51Z</time>
      </trkpt>
      <trkpt lat="50.524105271324515" lon="6.195869715884328">
        <ele>552.73000000000002</ele>
        <time>2023-05-24T15:23:59Z</time>
      </trkpt>
      <trkpt lat="50.524193700402975" lon="6.195138311013579">
        <ele>553.16999999999996</ele>
        <time>2023-05-24T15:23:25Z</time>
      </trkpt>
      <trkpt lat="50.524333426728845" lon="6.194319482892752">
        <ele>554.10000000000002</ele>
        <time>2023-05-24T15:22:45Z</time>
      </trkpt>
      <trkpt lat="50.524679264053702" lon="6.193998288363218">
        <ele>552.67999999999995</ele>
        <time>2023-05-24T15:21:51Z</time>
      </trkpt>
      <trkpt lat="50.525145381689072" lon="6.193772479891777">
        <ele>552.35000000000002</ele>
        <time>2023-05-24T15:21:21Z</time>
      </trkpt>
      <trkpt lat="50.525627927854657" lon="6.193560417741537">
        <ele>552.78999999999996</ele>
        <time>2023-05-24T15:20:43Z</time>
      </trkpt>
      <trkpt lat="50.526060853153467" lon="6.19332111440599">
        <ele>553.19000000000005</ele>
        <time>2023-05-24T15:20:05Z</time>
      </trkpt>
      <trkpt lat="50.526377186179161" lon="6.193142412230372">
        <ele>556</ele>
        <time>2023-05-24T15:17:25Z</time>
      </trkpt>
      <trkpt lat="50.52669670432806" lon="6.192666068673134">
        <ele>558.65999999999997</ele>
        <time>2023-05-24T15:16:56Z</time>
      </trkpt>
      <trkpt lat="50.526964925229549" lon="6.192112695425749">
        <ele>560.82000000000005</ele>
        <time>2023-05-24T15:16:28Z</time>
      </trkpt>
      <trkpt lat="50.527276145294309" lon="6.191587233915925">
        <ele>564.40999999999997</ele>
        <time>2023-05-24T15:16:00Z</time>
      </trkpt>
      <trkpt lat="50.527550149708986" lon="6.191000835970044">
        <ele>568.41999999999996</ele>
        <time>2023-05-24T15:15:33Z</time>
      </trkpt>
      <trkpt lat="50.527815269306302" lon="6.190409241244197">
        <ele>572.36000000000001</ele>
        <time>2023-05-24T15:15:05Z</time>
      </trkpt>
      <trkpt lat="50.528086759150028" lon="6.189869195222855">
        <ele>575.75</ele>
        <time>2023-05-24T15:14:37Z</time>
      </trkpt>
      <trkpt lat="50.528502585366368" lon="6.189560489729047">
        <ele>576.65999999999997</ele>
        <time>2023-05-24T15:14:08Z</time>
      </trkpt>
      <trkpt lat="50.528913047164679" lon="6.189283803105354">
        <ele>575.88999999999999</ele>
        <time>2023-05-24T15:13:31Z</time>
      </trkpt>
      <trkpt lat="50.529299955815077" lon="6.188906198367477">
        <ele>575.45000000000005</ele>
        <time>2023-05-24T15:12:56Z</time>
      </trkpt>
      <trkpt lat="50.529672112315893" lon="6.188503531739116">
        <ele>575.10000000000002</ele>
        <time>2023-05-24T15:12:25Z</time>
      </trkpt>
      <trkpt lat="50.530032953247428" lon="6.188076725229621">
        <ele>575.65999999999997</ele>
        <time>2023-05-24T15:11:55Z</time>
      </trkpt>
      <trkpt lat="50.530399661511183" lon="6.1876564566046">
        <ele>576.35000000000002</ele>
        <time>2023-05-24T15:11:27Z</time>
      </trkpt>
      <trkpt lat="50.530752120539546" lon="6.187150273472071">
        <ele>576.91999999999996</ele>
        <time>2023-05-24T15:10:59Z</time>
      </trkpt>
      <trkpt lat="50.531094102188945" lon="6.186617771163583">
        <ele>578.33000000000004</ele>
        <time>2023-05-24T15:10:31Z</time>
      </trkpt>
      <trkpt lat="50.531410686671734" lon="6.18607135489583">
        <ele>580.65999999999997</ele>
        <time>2023-05-24T15:10:02Z</time>
      </trkpt>
      <trkpt lat="50.531703969463706" lon="6.185442712157965">
        <ele>582.05999999999995</ele>
        <time>2023-05-24T15:09:32Z</time>
      </trkpt>
      <trkpt lat="50.532054752111435" lon="6.184754222631455">
        <ele>583.83000000000004</ele>
        <time>2023-05-24T15:08:55Z</time>
      </trkpt>
      <trkpt lat="50.532329929992557" lon="6.184131028130651">
        <ele>585.78999999999996</ele>
        <time>2023-05-24T15:08:23Z</time>
      </trkpt>
      <trkpt lat="50.532610891386867" lon="6.183542534708977">
        <ele>587.51999999999998</ele>
        <time>2023-05-24T15:07:52Z</time>
      </trkpt>
      <trkpt lat="50.532881459221244" lon="6.182940881699324">
        <ele>589.45000000000005</ele>
        <time>2023-05-24T15:07:21Z</time>
      </trkpt>
      <trkpt lat="50.533143142238259" lon="6.182351633906364">
        <ele>592.10000000000002</ele>
        <time>2023-05-24T15:06:49Z</time>
      </trkpt>
      <trkpt lat="50.533406501635909" lon="6.181753668934107">
        <ele>592.42999999999995</ele>
        <time>2023-05-24T15:06:19Z</time>
      </trkpt>
      <trkpt lat="50.533670196309686" lon="6.181155368685722">
        <ele>593.90999999999997</ele>
        <time>2023-05-24T15:05:49Z</time>
      </trkpt>
      <trkpt lat="50.533756194636226" lon="6.180461850017309">
        <ele>595.75999999999999</ele>
        <time>2023-05-24T15:05:18Z</time>
      </trkpt>
      <trkpt lat="50.53357757627964" lon="6.179759195074439">
        <ele>599.83000000000004</ele>
        <time>2023-05-24T15:04:47Z</time>
      </trkpt>
      <trkpt lat="50.533457547426224" lon="6.178989401087165">
        <ele>603.33000000000004</ele>
        <time>2023-05-24T15:04:16Z</time>
      </trkpt>
      <trkpt lat="50.533188236877322" lon="6.17834759876132">
        <ele>607.87</ele>
        <time>2023-05-24T15:03:44Z</time>
      </trkpt>
      <trkpt lat="50.533051444217563" lon="6.177652822807431">
        <ele>612.46000000000004</ele>
        <time>2023-05-24T15:03:14Z</time>
      </trkpt>
      <trkpt lat="50.532933594658971" lon="6.176932733505964">
        <ele>615.46000000000004</ele>
        <time>2023-05-24T15:02:45Z</time>
      </trkpt>
      <trkpt lat="50.532898893579841" lon="6.176121700555086">
        <ele>619.09000000000003</ele>
        <time>2023-05-24T15:02:15Z</time>
      </trkpt>
      <trkpt lat="50.532925464212894" lon="6.175384260714054">
        <ele>622.66999999999996</ele>
        <time>2023-05-24T15:01:43Z</time>
      </trkpt>
      <trkpt lat="50.533013809472322" lon="6.174602815881372">
        <ele>626.86000000000001</ele>
        <time>2023-05-24T15:01:09Z</time>
      </trkpt>
      <trkpt lat="50.533125372603536" lon="6.173901669681072">
        <ele>629.90999999999997</ele>
        <time>2023-05-24T15:00:40Z</time>
      </trkpt>
      <trkpt lat="50.533314803615212" lon="6.173221645876765">
        <ele>633.86000000000001</ele>
        <time>2023-05-24T15:00:10Z</time>
      </trkpt>
      <trkpt lat="50.533506749197841" lon="6.172575736418366">
        <ele>638.19000000000005</ele>
        <time>2023-05-24T14:59:40Z</time>
      </trkpt>
      <trkpt lat="50.533464085310698" lon="6.171779204159975">
        <ele>641.34000000000003</ele>
        <time>2023-05-24T14:59:09Z</time>
      </trkpt>
      <trkpt lat="50.533162504434586" lon="6.171036148443818">
        <ele>644.40999999999997</ele>
        <time>2023-05-24T14:58:35Z</time>
      </trkpt>
      <trkpt lat="50.532899396494031" lon="6.170248836278915">
        <ele>647.51999999999998</ele>
        <time>2023-05-24T14:58:00Z</time>
      </trkpt>
      <trkpt lat="50.532404612749815" lon="6.168705057352781">
        <ele>651.92999999999995</ele>
        <time>2023-05-24T14:56:59Z</time>
      </trkpt>
      <trkpt lat="50.531897256150842" lon="6.168135674670339">
        <ele>652.48000000000002</ele>
        <time>2023-05-24T14:56:25Z</time>
      </trkpt>
      <trkpt lat="50.531468605622649" lon="6.16762119345367">
        <ele>653.74000000000001</ele>
        <time>2023-05-24T14:55:49Z</time>
      </trkpt>
      <trkpt lat="50.531066944822669" lon="6.167230429127812">
        <ele>655.38999999999999</ele>
        <time>2023-05-24T14:55:19Z</time>
      </trkpt>
      <trkpt lat="50.530670816078782" lon="6.166778728365898">
        <ele>657.11000000000001</ele>
        <time>2023-05-24T14:54:51Z</time>
      </trkpt>
      <trkpt lat="50.530278040096164" lon="6.166332894936204">
        <ele>658.45000000000005</ele>
        <time>2023-05-24T14:54:21Z</time>
      </trkpt>
      <trkpt lat="50.529913092032075" lon="6.165902987122536">
        <ele>657.45000000000005</ele>
        <time>2023-05-24T14:53:51Z</time>
      </trkpt>
      <trkpt lat="50.529656605795026" lon="6.165298232808709">
        <ele>656.83000000000004</ele>
        <time>2023-05-24T14:53:22Z</time>
      </trkpt>
      <trkpt lat="50.529346140101552" lon="6.16536470130086">
        <ele>654.97000000000003</ele>
        <time>2023-05-24T14:51:18Z</time>
      </trkpt>
      <trkpt lat="50.529697174206376" lon="6.164735807105899">
        <ele>656.30999999999995</ele>
        <time>2023-05-24T14:50:26Z</time>
      </trkpt>
      <trkpt lat="50.530109228566289" lon="6.164075145497918">
        <ele>656.71000000000004</ele>
        <time>2023-05-24T14:49:50Z</time>
      </trkpt>
      <trkpt lat="50.530535113066435" lon="6.163324881345034">
        <ele>656.95000000000005</ele>
        <time>2023-05-24T14:49:11Z</time>
      </trkpt>
      <trkpt lat="50.530936941504478" lon="6.162498593330383">
        <ele>657.13</ele>
        <time>2023-05-24T14:48:23Z</time>
      </trkpt>
      <trkpt lat="50.531312366947532" lon="6.1616619117558">
        <ele>657.72000000000003</ele>
        <time>2023-05-24T14:47:36Z</time>
      </trkpt>
      <trkpt lat="50.531715117394924" lon="6.161014828830957">
        <ele>656.45000000000005</ele>
        <time>2023-05-24T14:46:49Z</time>
      </trkpt>
      <trkpt lat="50.532121974974871" lon="6.160230869427323">
        <ele>654.80999999999995</ele>
        <time>2023-05-24T14:46:03Z</time>
      </trkpt>
      <trkpt lat="50.53247326053679" lon="6.15955931134522">
        <ele>652.98000000000002</ele>
        <time>2023-05-24T14:45:18Z</time>
      </trkpt>
      <trkpt lat="50.532839214429259" lon="6.159031167626381">
        <ele>650.63</ele>
        <time>2023-05-24T14:44:36Z</time>
      </trkpt>
      <trkpt lat="50.53336844779551" lon="6.15885472856462">
        <ele>648.30999999999995</ele>
        <time>2023-05-24T14:43:58Z</time>
      </trkpt>
      <trkpt lat="50.53393280133605" lon="6.158698657527566">
        <ele>647.47000000000003</ele>
        <time>2023-05-24T14:43:18Z</time>
      </trkpt>
      <trkpt lat="50.534448623657227" lon="6.158625818789005">
        <ele>645.12</ele>
        <time>2023-05-24T14:42:39Z</time>
      </trkpt>
      <trkpt lat="50.534928319975734" lon="6.158497408032417">
        <ele>643.34000000000003</ele>
        <time>2023-05-24T14:41:54Z</time>
      </trkpt>
      <trkpt lat="50.535443555563688" lon="6.158406799659133">
        <ele>641.87</ele>
        <time>2023-05-24T14:41:15Z</time>
      </trkpt>
      <trkpt lat="50.535875139757991" lon="6.158358687534928">
        <ele>640.10000000000002</ele>
        <time>2023-05-24T14:40:41Z</time>
      </trkpt>
      <trkpt lat="50.536325918510556" lon="6.158317616209388">
        <ele>638.89999999999998</ele>
        <time>2023-05-24T14:40:08Z</time>
      </trkpt>
      <trkpt lat="50.536773093044758" lon="6.158394645899534">
        <ele>637.71000000000004</ele>
        <time>2023-05-24T14:39:34Z</time>
      </trkpt>
      <trkpt lat="50.537229655310512" lon="6.158416019752622">
        <ele>636.57000000000005</ele>
        <time>2023-05-24T14:39:00Z</time>
      </trkpt>
      <trkpt lat="50.53770063444972" lon="6.158396909013391">
        <ele>635.26999999999998</ele>
        <time>2023-05-24T14:38:25Z</time>
      </trkpt>
      <trkpt lat="50.538264149799943" lon="6.158588184043765">
        <ele>634.73000000000002</ele>
        <time>2023-05-24T14:37:50Z</time>
      </trkpt>
      <trkpt lat="50.538792880252004" lon="6.158655406907201">
        <ele>635.07000000000005</ele>
        <time>2023-05-24T14:37:13Z</time>
      </trkpt>
      <trkpt lat="50.540160303935409" lon="6.158756827935576">
        <ele>634.46000000000004</ele>
        <time>2023-05-24T14:35:45Z</time>
      </trkpt>
      <trkpt lat="50.541151044890285" lon="6.158430855721235">
        <ele>633.14999999999998</ele>
        <time>2023-05-24T14:34:23Z</time>
      </trkpt>
      <trkpt lat="50.541610037907958" lon="6.158106559887528">
        <ele>630.70000000000005</ele>
        <time>2023-05-24T14:33:41Z</time>
      </trkpt>
      <trkpt lat="50.542035419493914" lon="6.157754687592387">
        <ele>629.08000000000004</ele>
        <time>2023-05-24T14:33:07Z</time>
      </trkpt>
      <trkpt lat="50.542450407519937" lon="6.15728572010994">
        <ele>628.44000000000005</ele>
        <time>2023-05-24T14:32:30Z</time>
      </trkpt>
      <trkpt lat="50.542880231514573" lon="6.156944241374731">
        <ele>627.37</ele>
        <time>2023-05-24T14:31:53Z</time>
      </trkpt>
      <trkpt lat="50.543217603117228" lon="6.156599493697286">
        <ele>624.23000000000002</ele>
        <time>2023-05-24T14:30:05Z</time>
      </trkpt>
      <trkpt lat="50.54332715459168" lon="6.156570576131344">
        <ele>624.34000000000003</ele>
        <time>2023-05-24T14:27:22Z</time>
      </trkpt>
      <trkpt lat="50.543779442086816" lon="6.156293973326683">
        <ele>621.66999999999996</ele>
        <time>2023-05-24T14:26:19Z</time>
      </trkpt>
      <trkpt lat="50.544243799522519" lon="6.156049473211169">
        <ele>619.23000000000002</ele>
        <time>2023-05-24T14:25:54Z</time>
      </trkpt>
      <trkpt lat="50.54473833180964" lon="6.156112002208829">
        <ele>615.71000000000004</ele>
        <time>2023-05-24T14:25:27Z</time>
      </trkpt>
      <trkpt lat="50.545192882418633" lon="6.156024159863591">
        <ele>613.13</ele>
        <time>2023-05-24T14:24:58Z</time>
      </trkpt>
      <trkpt lat="50.54562128148973" lon="6.155622331425548">
        <ele>610.61000000000001</ele>
        <time>2023-05-24T14:24:20Z</time>
      </trkpt>
      <trkpt lat="50.546097541227937" lon="6.155568351969123">
        <ele>606.97000000000003</ele>
        <time>2023-05-24T14:23:47Z</time>
      </trkpt>
      <trkpt lat="50.546541279181838" lon="6.155696511268616">
        <ele>603.59000000000003</ele>
        <time>2023-05-24T14:23:15Z</time>
      </trkpt>
      <trkpt lat="50.546993482857943" lon="6.155512277036905">
        <ele>599.35000000000002</ele>
        <time>2023-05-24T14:22:45Z</time>
      </trkpt>
      <trkpt lat="50.547359436750412" lon="6.1550981272012">
        <ele>597.03999999999996</ele>
        <time>2023-05-24T14:22:20Z</time>
      </trkpt>
      <trkpt lat="50.547522129490972" lon="6.154353395104408">
        <ele>591.79999999999995</ele>
        <time>2023-05-24T14:21:52Z</time>
      </trkpt>
      <trkpt lat="50.547538055106997" lon="6.15355409681797">
        <ele>588.86000000000001</ele>
        <time>2023-05-24T14:21:22Z</time>
      </trkpt>
      <trkpt lat="50.547455493360758" lon="6.152802240103483">
        <ele>586.52999999999997</ele>
        <time>2023-05-24T14:20:51Z</time>
      </trkpt>
      <trkpt lat="50.547402100637555" lon="6.152066476643086">
        <ele>582.99000000000001</ele>
        <time>2023-05-24T14:20:24Z</time>
      </trkpt>
      <trkpt lat="50.547388354316354" lon="6.151275811716914">
        <ele>580.45000000000005</ele>
        <time>2023-05-24T14:19:57Z</time>
      </trkpt>
      <trkpt lat="50.547369327396154" lon="6.150522362440825">
        <ele>578.01999999999998</ele>
        <time>2023-05-24T14:19:34Z</time>
      </trkpt>
      <trkpt lat="50.547355497255921" lon="6.149764889851213">
        <ele>575.48000000000002</ele>
        <time>2023-05-24T14:19:07Z</time>
      </trkpt>
      <trkpt lat="50.547377457842231" lon="6.148975398391485">
        <ele>572.88999999999999</ele>
        <time>2023-05-24T14:18:39Z</time>
      </trkpt>
      <trkpt lat="50.547792781144381" lon="6.148855285719037">
        <ele>570.44000000000005</ele>
        <time>2023-05-24T14:18:09Z</time>
      </trkpt>
      <trkpt lat="50.548242554068565" lon="6.14896978251636">
        <ele>569.13</ele>
        <time>2023-05-24T14:17:41Z</time>
      </trkpt>
      <trkpt lat="50.548701295629144" lon="6.149085871875286">
        <ele>567</ele>
        <time>2023-05-24T14:17:12Z</time>
      </trkpt>
      <trkpt lat="50.549134807661176" lon="6.149328611791134">
        <ele>564.62</ele>
        <time>2023-05-24T14:16:44Z</time>
      </trkpt>
      <trkpt lat="50.549513334408402" lon="6.149726836010814">
        <ele>561.59000000000003</ele>
        <time>2023-05-24T14:16:15Z</time>
      </trkpt>
      <trkpt lat="50.549878450110555" lon="6.150152636691928">
        <ele>559.04999999999995</ele>
        <time>2023-05-24T14:15:44Z</time>
      </trkpt>
      <trkpt lat="50.55024859495461" lon="6.150575252249837">
        <ele>557.12</ele>
        <time>2023-05-24T14:15:16Z</time>
      </trkpt>
      <trkpt lat="50.55059066042304" lon="6.150439213961363">
        <ele>557.84000000000003</ele>
        <time>2023-05-24T14:14:46Z</time>
      </trkpt>
      <trkpt lat="50.550332330167294" lon="6.149855079129338">
        <ele>557.02999999999997</ele>
        <time>2023-05-24T14:14:18Z</time>
      </trkpt>
      <trkpt lat="50.550047094002366" lon="6.149305142462254">
        <ele>556.76999999999998</ele>
        <time>2023-05-24T14:13:50Z</time>
      </trkpt>
      <trkpt lat="50.549788512289524" lon="6.148680439218879">
        <ele>556.65999999999997</ele>
        <time>2023-05-24T14:13:22Z</time>
      </trkpt>
      <trkpt lat="50.549591705203056" lon="6.148028578609228">
        <ele>556.79999999999995</ele>
        <time>2023-05-24T14:12:54Z</time>
      </trkpt>
      <trkpt lat="50.549414930865169" lon="6.147356014698744">
        <ele>557.24000000000001</ele>
        <time>2023-05-24T14:12:26Z</time>
      </trkpt>
      <trkpt lat="50.549232792109251" lon="6.14664489403367">
        <ele>557.34000000000003</ele>
        <time>2023-05-24T14:11:55Z</time>
      </trkpt>
      <trkpt lat="50.549073619768023" lon="6.145927151665092">
        <ele>557.63999999999999</ele>
        <time>2023-05-24T14:11:22Z</time>
      </trkpt>
      <trkpt lat="50.54904512129724" lon="6.145169008523226">
        <ele>558.16999999999996</ele>
        <time>2023-05-24T14:10:52Z</time>
      </trkpt>
      <trkpt lat="50.54907982237637" lon="6.144377086311579">
        <ele>557.25</ele>
        <time>2023-05-24T14:10:19Z</time>
      </trkpt>
      <trkpt lat="50.549169760197401" lon="6.143661523237824">
        <ele>557.17999999999995</ele>
        <time>2023-05-24T14:09:49Z</time>
      </trkpt>
      <trkpt lat="50.549437645822763" lon="6.143030282109976">
        <ele>558.76999999999998</ele>
        <time>2023-05-24T14:09:19Z</time>
      </trkpt>
      <trkpt lat="50.549821704626083" lon="6.142570618540049">
        <ele>558.50999999999999</ele>
        <time>2023-05-24T14:08:47Z</time>
      </trkpt>
      <trkpt lat="50.550155304372311" lon="6.142089664936066">
        <ele>558.67999999999995</ele>
        <time>2023-05-24T14:08:18Z</time>
      </trkpt>
      <trkpt lat="50.550446826964617" lon="6.141499830409885">
        <ele>558.42999999999995</ele>
        <time>2023-05-24T14:07:47Z</time>
      </trkpt>
      <trkpt lat="50.550647992640734" lon="6.140855848789215">
        <ele>558.33000000000004</ele>
        <time>2023-05-24T14:07:17Z</time>
      </trkpt>
      <trkpt lat="50.550695601850748" lon="6.140119582414627">
        <ele>558.72000000000003</ele>
        <time>2023-05-24T14:06:46Z</time>
      </trkpt>
      <trkpt lat="50.550726447254419" lon="6.139393458142877">
        <ele>557.63</ele>
        <time>2023-05-24T14:06:18Z</time>
      </trkpt>
      <trkpt lat="50.550738265737891" lon="6.13867873325944">
        <ele>557.79999999999995</ele>
        <time>2023-05-24T14:05:50Z</time>
      </trkpt>
      <trkpt lat="50.550874387845397" lon="6.138002229854465">
        <ele>557.65999999999997</ele>
        <time>2023-05-24T14:05:19Z</time>
      </trkpt>
      <trkpt lat="50.551154091954231" lon="6.137458998709917">
        <ele>557.52999999999997</ele>
        <time>2023-05-24T14:04:50Z</time>
      </trkpt>
      <trkpt lat="50.551422145217657" lon="6.136872014030814">
        <ele>557.03999999999996</ele>
        <time>2023-05-24T14:04:20Z</time>
      </trkpt>
      <trkpt lat="50.55171056650579" lon="6.136289471760392">
        <ele>557.51999999999998</ele>
        <time>2023-05-24T14:03:50Z</time>
      </trkpt>
      <trkpt lat="50.552059505134821" lon="6.135776583105326">
        <ele>557.30999999999995</ele>
        <time>2023-05-24T14:03:21Z</time>
      </trkpt>
      <trkpt lat="50.552465859800577" lon="6.135371821001172">
        <ele>557.26999999999998</ele>
        <time>2023-05-24T14:02:52Z</time>
      </trkpt>
      <trkpt lat="50.552933653816581" lon="6.135361762717366">
        <ele>557.08000000000004</ele>
        <time>2023-05-24T14:02:24Z</time>
      </trkpt>
      <trkpt lat="50.553324166685343" lon="6.135747497901321">
        <ele>556.36000000000001</ele>
        <time>2023-05-24T14:01:54Z</time>
      </trkpt>
      <trkpt lat="50.553663885220885" lon="6.136277569457889">
        <ele>556.10000000000002</ele>
        <time>2023-05-24T14:01:25Z</time>
      </trkpt>
      <trkpt lat="50.553980721160769" lon="6.136800851672888">
        <ele>556.35000000000002</ele>
        <time>2023-05-24T14:00:53Z</time>
      </trkpt>
      <trkpt lat="50.554338879883289" lon="6.137256743386388">
        <ele>556.45000000000005</ele>
        <time>2023-05-24T14:00:23Z</time>
      </trkpt>
      <trkpt lat="50.554745234549046" lon="6.137680364772677">
        <ele>556.27999999999997</ele>
        <time>2023-05-24T13:59:53Z</time>
      </trkpt>
      <trkpt lat="50.555141363292933" lon="6.138049839064479">
        <ele>556.35000000000002</ele>
        <time>2023-05-24T13:59:24Z</time>
      </trkpt>
      <trkpt lat="50.555534977465868" lon="6.138433646410704">
        <ele>556.72000000000003</ele>
        <time>2023-05-24T13:58:56Z</time>
      </trkpt>
      <trkpt lat="50.555930016562343" lon="6.138823488727212">
        <ele>556.34000000000003</ele>
        <time>2023-05-24T13:58:28Z</time>
      </trkpt>
      <trkpt lat="50.556343160569668" lon="6.139179887250066">
        <ele>555.24000000000001</ele>
        <time>2023-05-24T13:57:57Z</time>
      </trkpt>
      <trkpt lat="50.556797794997692" lon="6.139356745406985">
        <ele>554.39999999999998</ele>
        <time>2023-05-24T13:57:26Z</time>
      </trkpt>
      <trkpt lat="50.557250333949924" lon="6.139437798410654">
        <ele>552.95000000000005</ele>
        <time>2023-05-24T13:56:55Z</time>
      </trkpt>
      <trkpt lat="50.557708153501153" lon="6.139578865841031">
        <ele>552.63999999999999</ele>
        <time>2023-05-24T13:56:36Z</time>
      </trkpt>
      <trkpt lat="50.558148454874754" lon="6.139808194711804">
        <ele>551.61000000000001</ele>
        <time>2023-05-24T13:56:23Z</time>
      </trkpt>
      <trkpt lat="50.558618260547519" lon="6.139911711215973">
        <ele>550.30999999999995</ele>
        <time>2023-05-24T13:56:10Z</time>
      </trkpt>
      <trkpt lat="50.559071218594909" lon="6.139685483649373">
        <ele>549.23000000000002</ele>
        <time>2023-05-24T13:55:57Z</time>
      </trkpt>
      <trkpt lat="50.559464748948812" lon="6.139288265258074">
        <ele>548.82000000000005</ele>
        <time>2023-05-24T13:55:44Z</time>
      </trkpt>
      <trkpt lat="50.559903876855969" lon="6.139008812606335">
        <ele>547.25999999999999</ele>
        <time>2023-05-24T13:55:30Z</time>
      </trkpt>
      <trkpt lat="50.560285924002528" lon="6.138627352192998">
        <ele>546.39999999999998</ele>
        <time>2023-05-24T13:55:16Z</time>
      </trkpt>
      <trkpt lat="50.560594964772463" lon="6.138108596205711">
        <ele>545.07000000000005</ele>
        <time>2023-05-24T13:55:03Z</time>
      </trkpt>
      <trkpt lat="50.560934012755752" lon="6.137577518820763">
        <ele>544.90999999999997</ele>
        <time>2023-05-24T13:54:50Z</time>
      </trkpt>
      <trkpt lat="50.561233162879944" lon="6.136948205530644">
        <ele>543.28999999999996</ele>
        <time>2023-05-24T13:54:36Z</time>
      </trkpt>
      <trkpt lat="50.561572881415486" lon="6.136444704607129">
        <ele>542.84000000000003</ele>
        <time>2023-05-24T13:54:22Z</time>
      </trkpt>
      <trkpt lat="50.561917629092932" lon="6.135878758504987">
        <ele>541.19000000000005</ele>
        <time>2023-05-24T13:54:09Z</time>
      </trkpt>
      <trkpt lat="50.562294395640492" lon="6.135415239259601">
        <ele>540.47000000000003</ele>
        <time>2023-05-24T13:53:55Z</time>
      </trkpt>
      <trkpt lat="50.562565214931965" lon="6.134840240702033">
        <ele>539.71000000000004</ele>
        <time>2023-05-24T13:53:43Z</time>
      </trkpt>
      <trkpt lat="50.562877776101232" lon="6.134307906031609">
        <ele>537.44000000000005</ele>
        <time>2023-05-24T13:53:31Z</time>
      </trkpt>
      <trkpt lat="50.563228139653802" lon="6.133807254955173">
        <ele>536.91999999999996</ele>
        <time>2023-05-24T13:53:20Z</time>
      </trkpt>
      <trkpt lat="50.563569953665137" lon="6.133246254175901">
        <ele>535.37</ele>
        <time>2023-05-24T13:53:09Z</time>
      </trkpt>
      <trkpt lat="50.563967004418373" lon="6.132736802101135">
        <ele>533.75</ele>
        <time>2023-05-24T13:52:57Z</time>
      </trkpt>
      <trkpt lat="50.564377130940557" lon="6.132285101339221">
        <ele>533.53999999999996</ele>
        <time>2023-05-24T13:52:45Z</time>
      </trkpt>
      <trkpt lat="50.5648238863796" lon="6.131962817162275">
        <ele>532.33000000000004</ele>
        <time>2023-05-24T13:52:33Z</time>
      </trkpt>
      <trkpt lat="50.565256476402283" lon="6.131688142195344">
        <ele>531.42999999999995</ele>
        <time>2023-05-24T13:52:20Z</time>
      </trkpt>
      <trkpt lat="50.565726114436984" lon="6.13157557323575">
        <ele>529.46000000000004</ele>
        <time>2023-05-24T13:52:02Z</time>
      </trkpt>
      <trkpt lat="50.566203044727445" lon="6.131559144705534">
        <ele>528.78999999999996</ele>
        <time>2023-05-24T13:51:34Z</time>
      </trkpt>
      <trkpt lat="50.565940272063017" lon="6.131065869703889">
        <ele>526.04999999999995</ele>
        <time>2023-05-24T13:51:06Z</time>
      </trkpt>
      <trkpt lat="50.565501227974892" lon="6.130665550008416">
        <ele>523.10000000000002</ele>
        <time>2023-05-24T13:50:42Z</time>
      </trkpt>
      <trkpt lat="50.564942993223667" lon="6.130510233342648">
        <ele>519.89999999999998</ele>
        <time>2023-05-24T13:50:10Z</time>
      </trkpt>
      <trkpt lat="50.564361121505499" lon="6.130564548075199">
        <ele>515.14999999999998</ele>
        <time>2023-05-24T13:49:40Z</time>
      </trkpt>
      <trkpt lat="50.563793079927564" lon="6.130864787846804">
        <ele>512.07000000000005</ele>
        <time>2023-05-24T13:49:06Z</time>
      </trkpt>
      <trkpt lat="50.563326710835099" lon="6.131085064262152">
        <ele>508.19999999999999</ele>
        <time>2023-05-24T13:48:40Z</time>
      </trkpt>
      <trkpt lat="50.56278339587152" lon="6.131427297368646">
        <ele>504.62</ele>
        <time>2023-05-24T13:48:16Z</time>
      </trkpt>
      <trkpt lat="50.562221640720963" lon="6.131666181609035">
        <ele>500.17000000000002</ele>
        <time>2023-05-24T13:47:41Z</time>
      </trkpt>
      <trkpt lat="50.561721827834845" lon="6.131987711414695">
        <ele>498.80000000000001</ele>
        <time>2023-05-24T13:47:16Z</time>
      </trkpt>
      <trkpt lat="50.561236850917339" lon="6.132343774661422">
        <ele>496.50999999999999</ele>
        <time>2023-05-24T13:46:45Z</time>
      </trkpt>
      <trkpt lat="50.561298625543714" lon="6.132029453292489">
        <ele>491.26999999999998</ele>
        <time>2023-05-24T13:46:16Z</time>
      </trkpt>
      <trkpt lat="50.561636248603463" lon="6.131499297916889">
        <ele>485.82999999999998</ele>
        <time>2023-05-24T13:45:47Z</time>
      </trkpt>
      <trkpt lat="50.562028186395764" lon="6.131091183051467">
        <ele>483.95999999999998</ele>
        <time>2023-05-24T13:45:23Z</time>
      </trkpt>
      <trkpt lat="50.562383076176047" lon="6.130645098164678">
        <ele>479.97000000000003</ele>
        <time>2023-05-24T13:45:07Z</time>
      </trkpt>
      <trkpt lat="50.562732517719269" lon="6.130168838426471">
        <ele>476.17000000000002</ele>
        <time>2023-05-24T13:44:56Z</time>
      </trkpt>
      <trkpt lat="50.563122276216745" lon="6.129704564809799">
        <ele>471.91000000000003</ele>
        <time>2023-05-24T13:44:44Z</time>
      </trkpt>
      <trkpt lat="50.563550591468811" lon="6.129380520433188">
        <ele>468.98000000000002</ele>
        <time>2023-05-24T13:44:33Z</time>
      </trkpt>
      <trkpt lat="50.563969435170293" lon="6.129011884331703">
        <ele>466.07999999999998</ele>
        <time>2023-05-24T13:44:22Z</time>
      </trkpt>
      <trkpt lat="50.564338574185967" lon="6.128560099750757">
        <ele>464.58999999999997</ele>
        <time>2023-05-24T13:44:13Z</time>
      </trkpt>
      <trkpt lat="50.564704360440373" lon="6.128040589392185">
        <ele>462.94</ele>
        <time>2023-05-24T13:44:03Z</time>
      </trkpt>
      <trkpt lat="50.565004516392946" lon="6.127478163689375">
        <ele>461.79000000000002</ele>
        <time>2023-05-24T13:43:53Z</time>
      </trkpt>
      <trkpt lat="50.565304001793265" lon="6.126857232302427">
        <ele>461.97000000000003</ele>
        <time>2023-05-24T13:43:42Z</time>
      </trkpt>
      <trkpt lat="50.565639110282063" lon="6.126254489645362">
        <ele>461.52999999999997</ele>
        <time>2023-05-24T13:43:31Z</time>
      </trkpt>
      <trkpt lat="50.566035658121109" lon="6.12584738060832">
        <ele>460.5</ele>
        <time>2023-05-24T13:43:21Z</time>
      </trkpt>
      <trkpt lat="50.566477887332439" lon="6.125504393130541">
        <ele>460.48000000000002</ele>
        <time>2023-05-24T13:43:10Z</time>
      </trkpt>
      <trkpt lat="50.566881475970149" lon="6.125157717615366">
        <ele>460.55000000000001</ele>
        <time>2023-05-24T13:42:59Z</time>
      </trkpt>
      <trkpt lat="50.567346671596169" lon="6.124904248863459">
        <ele>458.63</ele>
        <time>2023-05-24T13:42:47Z</time>
      </trkpt>
      <trkpt lat="50.567802479490638" lon="6.124630160629749">
        <ele>458.75</ele>
        <time>2023-05-24T13:42:29Z</time>
      </trkpt>
      <trkpt lat="50.568193662911654" lon="6.124274516478181">
        <ele>456.10000000000002</ele>
        <time>2023-05-24T13:42:10Z</time>
      </trkpt>
      <trkpt lat="50.568494405597448" lon="6.123687112703919">
        <ele>454.20999999999998</ele>
        <time>2023-05-24T13:41:58Z</time>
      </trkpt>
      <trkpt lat="50.568757764995098" lon="6.123073138296604">
        <ele>452.44</ele>
        <time>2023-05-24T13:41:46Z</time>
      </trkpt>
      <trkpt lat="50.569022633135319" lon="6.122462516650558">
        <ele>449.26999999999998</ele>
        <time>2023-05-24T13:41:34Z</time>
      </trkpt>
      <trkpt lat="50.56928557343781" lon="6.121835634112358">
        <ele>447.32999999999998</ele>
        <time>2023-05-24T13:41:23Z</time>
      </trkpt>
      <trkpt lat="50.569577515125275" lon="6.121274046599865">
        <ele>446.57999999999998</ele>
        <time>2023-05-24T13:41:11Z</time>
      </trkpt>
      <trkpt lat="50.569937769323587" lon="6.120770880952478">
        <ele>443.87</ele>
        <time>2023-05-24T13:41:00Z</time>
      </trkpt>
      <trkpt lat="50.570332892239094" lon="6.120281210169196">
        <ele>442.81999999999999</ele>
        <time>2023-05-24T13:40:51Z</time>
      </trkpt>
      <trkpt lat="50.570750730112195" lon="6.119836298748851">
        <ele>440.89999999999998</ele>
        <time>2023-05-24T13:40:42Z</time>
      </trkpt>
      <trkpt lat="50.571183655411005" lon="6.119470596313477">
        <ele>438.83999999999997</ele>
        <time>2023-05-24T13:40:34Z</time>
      </trkpt>
      <trkpt lat="50.571614988148212" lon="6.119111264124513">
        <ele>436.25</ele>
        <time>2023-05-24T13:40:26Z</time>
      </trkpt>
      <trkpt lat="50.572075489908457" lon="6.118933148682118">
        <ele>435</ele>
        <time>2023-05-24T13:40:18Z</time>
      </trkpt>
      <trkpt lat="50.572566585615277" lon="6.118923174217343">
        <ele>433.95999999999998</ele>
        <time>2023-05-24T13:40:09Z</time>
      </trkpt>
      <trkpt lat="50.573043515905738" lon="6.119084190577269">
        <ele>430.94999999999999</ele>
        <time>2023-05-24T13:39:58Z</time>
      </trkpt>
      <trkpt lat="50.573507035151124" lon="6.119350818917155">
        <ele>428.85000000000002</ele>
        <time>2023-05-24T13:39:48Z</time>
      </trkpt>
      <trkpt lat="50.573973823338747" lon="6.119617028161883">
        <ele>428</ele>
        <time>2023-05-24T13:39:36Z</time>
      </trkpt>
      <trkpt lat="50.57443717494607" lon="6.119692046195269">
        <ele>426.48000000000002</ele>
        <time>2023-05-24T13:39:23Z</time>
      </trkpt>
      <trkpt lat="50.574935646727681" lon="6.119624907150865">
        <ele>423.74000000000001</ele>
        <time>2023-05-24T13:38:58Z</time>
      </trkpt>
      <trkpt lat="50.575392628088593" lon="6.119480235502124">
        <ele>423.64999999999998</ele>
        <time>2023-05-24T13:38:44Z</time>
      </trkpt>
      <trkpt lat="50.575852040201426" lon="6.11935836263001">
        <ele>423.13999999999999</ele>
        <time>2023-05-24T13:38:14Z</time>
      </trkpt>
      <trkpt lat="50.575720947235823" lon="6.119314357638359">
        <ele>422.12</ele>
        <time>2023-05-24T13:36:13Z</time>
      </trkpt>
      <trkpt lat="50.575969303026795" lon="6.119173960760236">
        <ele>419.64999999999998</ele>
        <time>2023-05-24T13:34:31Z</time>
      </trkpt>
      <trkpt lat="50.575934266671538" lon="6.119162729009986">
        <ele>419.06999999999999</ele>
        <time>2023-05-24T13:32:52Z</time>
      </trkpt>
      <trkpt lat="50.576017163693905" lon="6.119347047060728">
        <ele>419.83999999999997</ele>
        <time>2023-05-24T13:30:52Z</time>
      </trkpt>
      <trkpt lat="50.576584283262491" lon="6.119461376219988">
        <ele>423.81</ele>
        <time>2023-05-24T13:30:18Z</time>
      </trkpt>
      <trkpt lat="50.577191971242428" lon="6.119566485285759">
        <ele>427.06999999999999</ele>
        <time>2023-05-24T13:29:41Z</time>
      </trkpt>
      <trkpt lat="50.577898900955915" lon="6.119514182209969">
        <ele>431.36000000000001</ele>
        <time>2023-05-24T13:28:59Z</time>
      </trkpt>
      <trkpt lat="50.578453782945871" lon="6.11941653303802">
        <ele>435.92000000000002</ele>
        <time>2023-05-24T13:28:15Z</time>
      </trkpt>
      <trkpt lat="50.578972455114126" lon="6.119412425905466">
        <ele>438.73000000000002</ele>
        <time>2023-05-24T13:27:34Z</time>
      </trkpt>
      <trkpt lat="50.579461203888059" lon="6.119517534971237">
        <ele>442.06</ele>
        <time>2023-05-24T13:26:22Z</time>
      </trkpt>
      <trkpt lat="50.580043578520417" lon="6.119592469185591">
        <ele>446.41000000000003</ele>
        <time>2023-05-24T13:25:41Z</time>
      </trkpt>
      <trkpt lat="50.580656547099352" lon="6.119664469733834">
        <ele>450.22000000000003</ele>
        <time>2023-05-24T13:24:57Z</time>
      </trkpt>
      <trkpt lat="50.581317124888301" lon="6.120091611519456">
        <ele>453.18000000000001</ele>
        <time>2023-05-24T13:24:13Z</time>
      </trkpt>
      <trkpt lat="50.582069652155042" lon="6.120951510965824">
        <ele>459.44999999999999</ele>
        <time>2023-05-24T13:23:07Z</time>
      </trkpt>
      <trkpt lat="50.582434851676226" lon="6.121765058487654">
        <ele>462.89999999999998</ele>
        <time>2023-05-24T13:22:18Z</time>
      </trkpt>
      <trkpt lat="50.582679687067866" lon="6.122328825294972">
        <ele>465.62</ele>
        <time>2023-05-24T13:21:47Z</time>
      </trkpt>
      <trkpt lat="50.582869537174702" lon="6.122972052544355">
        <ele>467.69999999999999</ele>
        <time>2023-05-24T13:21:19Z</time>
      </trkpt>
      <trkpt lat="50.582950506359339" lon="6.123679568991065">
        <ele>470.25</ele>
        <time>2023-05-24T13:20:50Z</time>
      </trkpt>
      <trkpt lat="50.582998534664512" lon="6.124409465119243">
        <ele>471.80000000000001</ele>
        <time>2023-05-24T13:20:16Z</time>
      </trkpt>
      <trkpt lat="50.582984620705247" lon="6.125149419531226">
        <ele>474.79000000000002</ele>
        <time>2023-05-24T13:19:26Z</time>
      </trkpt>
      <trkpt lat="50.582991410046816" lon="6.12587328068912">
        <ele>475.82999999999998</ele>
        <time>2023-05-24T13:18:54Z</time>
      </trkpt>
      <trkpt lat="50.582998199388385" lon="6.12660669721663">
        <ele>477.17000000000002</ele>
        <time>2023-05-24T13:18:23Z</time>
      </trkpt>
      <trkpt lat="50.583056788891554" lon="6.12733474932611">
        <ele>478.06</ele>
        <time>2023-05-24T13:17:53Z</time>
      </trkpt>
      <trkpt lat="50.583157455548644" lon="6.128085516393185">
        <ele>477.44999999999999</ele>
        <time>2023-05-24T13:17:21Z</time>
      </trkpt>
      <trkpt lat="50.583552327007055" lon="6.128659173846245">
        <ele>477.04000000000002</ele>
        <time>2023-05-24T13:16:31Z</time>
      </trkpt>
      <trkpt lat="50.58407099917531" lon="6.129012554883957">
        <ele>478.30000000000001</ele>
        <time>2023-05-24T13:15:48Z</time>
      </trkpt>
      <trkpt lat="50.584427816793323" lon="6.129337102174759">
        <ele>479.23000000000002</ele>
        <time>2023-05-24T13:14:18Z</time>
      </trkpt>
      <trkpt lat="50.58489728718996" lon="6.12949451431632">
        <ele>482.29000000000002</ele>
        <time>2023-05-24T13:13:20Z</time>
      </trkpt>
      <trkpt lat="50.585361979901791" lon="6.129262419417501">
        <ele>483.06999999999999</ele>
        <time>2023-05-24T13:12:46Z</time>
      </trkpt>
      <trkpt lat="50.585797168314457" lon="6.128850616514683">
        <ele>484.11000000000001</ele>
        <time>2023-05-24T13:12:14Z</time>
      </trkpt>
      <trkpt lat="50.586248952895403" lon="6.128552639856935">
        <ele>486.60000000000002</ele>
        <time>2023-05-24T13:11:40Z</time>
      </trkpt>
      <trkpt lat="50.586723368614912" lon="6.128655485808849">
        <ele>489.50999999999999</ele>
        <time>2023-05-24T13:11:09Z</time>
      </trkpt>
      <trkpt lat="50.586530836299062" lon="6.129226125776768">
        <ele>490.36000000000001</ele>
        <time>2023-05-24T13:10:32Z</time>
      </trkpt>
      <trkpt lat="50.586242163553834" lon="6.129784444347024">
        <ele>491.25</ele>
        <time>2023-05-24T13:10:03Z</time>
      </trkpt>
      <trkpt lat="50.585906384512782" lon="6.130232373252511">
        <ele>490.88</ele>
        <time>2023-05-24T13:09:20Z</time>
      </trkpt>
      <trkpt lat="50.586331598460674" lon="6.130417110398412">
        <ele>492.06</ele>
        <time>2023-05-24T13:08:19Z</time>
      </trkpt>
      <trkpt lat="50.586825292557478" lon="6.13077568821609">
        <ele>494.44</ele>
        <time>2023-05-24T13:07:45Z</time>
      </trkpt>
      <trkpt lat="50.587467178702354" lon="6.13120224326849">
        <ele>497.63999999999999</ele>
        <time>2023-05-24T13:06:57Z</time>
      </trkpt>
      <trkpt lat="50.588069753721356" lon="6.131573729217053">
        <ele>499.39999999999998</ele>
        <time>2023-05-24T13:06:11Z</time>
      </trkpt>
      <trkpt lat="50.588634610176086" lon="6.131977820768952">
        <ele>500.95999999999998</ele>
        <time>2023-05-24T13:05:31Z</time>
      </trkpt>
      <trkpt lat="50.589185887947679" lon="6.132323238998652">
        <ele>501.10000000000002</ele>
        <time>2023-05-24T13:04:52Z</time>
      </trkpt>
      <trkpt lat="50.589683437719941" lon="6.132693300023675">
        <ele>500.13</ele>
        <time>2023-05-24T13:04:17Z</time>
      </trkpt>
      <trkpt lat="50.590159948915243" lon="6.133224545046687">
        <ele>496.73000000000002</ele>
        <time>2023-05-24T13:03:32Z</time>
      </trkpt>
      <trkpt lat="50.590592455118895" lon="6.133156819269061">
        <ele>495.54000000000002</ele>
        <time>2023-05-24T13:02:07Z</time>
      </trkpt>
      <trkpt lat="50.591075588017702" lon="6.133365277200937">
        <ele>490.33999999999997</ele>
        <time>2023-05-24T13:01:23Z</time>
      </trkpt>
      <trkpt lat="50.591688305139542" lon="6.13376509398222">
        <ele>484.45999999999998</ele>
        <time>2023-05-24T13:00:12Z</time>
      </trkpt>
      <trkpt lat="50.592201026156545" lon="6.134393569082022">
        <ele>473.20999999999998</ele>
        <time>2023-05-24T12:59:11Z</time>
      </trkpt>
      <trkpt lat="50.592696312814951" lon="6.134682660922408">
        <ele>465.48000000000002</ele>
        <time>2023-05-24T12:58:31Z</time>
      </trkpt>
      <trkpt lat="50.593137536197901" lon="6.135043166577816">
        <ele>457.44</ele>
        <time>2023-05-24T12:57:53Z</time>
      </trkpt>
      <trkpt lat="50.593285392969847" lon="6.1347487103194">
        <ele>455.48000000000002</ele>
        <time>2023-05-24T12:53:06Z</time>
      </trkpt>
      <trkpt lat="50.59355822391808" lon="6.134156193584204">
        <ele>452.35000000000002</ele>
        <time>2023-05-24T12:52:43Z</time>
      </trkpt>
      <trkpt lat="50.593808423727751" lon="6.13354473374784">
        <ele>450.70999999999998</ele>
        <time>2023-05-24T12:52:18Z</time>
      </trkpt>
      <trkpt lat="50.594032723456621" lon="6.132943667471409">
        <ele>448.5</ele>
        <time>2023-05-24T12:51:54Z</time>
      </trkpt>
      <trkpt lat="50.59428577311337" lon="6.13227671943605">
        <ele>445.88999999999999</ele>
        <time>2023-05-24T12:51:30Z</time>
      </trkpt>
      <trkpt lat="50.594554245471954" lon="6.131613627076149">
        <ele>444.99000000000001</ele>
        <time>2023-05-24T12:51:08Z</time>
      </trkpt>
      <trkpt lat="50.595095800235868" lon="6.130675356835127">
        <ele>441.06</ele>
        <time>2023-05-24T12:50:31Z</time>
      </trkpt>
      <trkpt lat="50.595440128818154" lon="6.130031039938331">
        <ele>438.95999999999998</ele>
        <time>2023-05-24T12:50:00Z</time>
      </trkpt>
      <trkpt lat="50.595758473500609" lon="6.129406336694956">
        <ele>437.01999999999998</ele>
        <time>2023-05-24T12:49:33Z</time>
      </trkpt>
      <trkpt lat="50.596017055213451" lon="6.128725139424205">
        <ele>433.89999999999998</ele>
        <time>2023-05-24T12:49:03Z</time>
      </trkpt>
      <trkpt lat="50.596444113180041" lon="6.128182327374816">
        <ele>431.39999999999998</ele>
        <time>2023-05-24T12:47:52Z</time>
      </trkpt>
      <trkpt lat="50.596766229718924" lon="6.127556785941124">
        <ele>429.38</ele>
        <time>2023-05-24T12:47:17Z</time>
      </trkpt>
      <trkpt lat="50.597102260217071" lon="6.127011794596911">
        <ele>426.66000000000003</ele>
        <time>2023-05-24T12:46:45Z</time>
      </trkpt>
      <trkpt lat="50.597432339563966" lon="6.126338643953204">
        <ele>423.66000000000003</ele>
        <time>2023-05-24T12:46:11Z</time>
      </trkpt>
      <trkpt lat="50.597656471654773" lon="6.125652585178614">
        <ele>419.76999999999998</ele>
        <time>2023-05-24T12:45:32Z</time>
      </trkpt>
      <trkpt lat="50.597882783040404" lon="6.124935681000352">
        <ele>417.47000000000003</ele>
        <time>2023-05-24T12:45:01Z</time>
      </trkpt>
      <trkpt lat="50.59812979772687" lon="6.125219156965613">
        <ele>414.68000000000001</ele>
        <time>2023-05-24T12:43:55Z</time>
      </trkpt>
      <trkpt lat="50.598142119124532" lon="6.126039242371917">
        <ele>411.66000000000003</ele>
        <time>2023-05-24T12:43:22Z</time>
      </trkpt>
      <trkpt lat="50.598026029765606" lon="6.12680702470243">
        <ele>407.77999999999997</ele>
        <time>2023-05-24T12:42:51Z</time>
      </trkpt>
      <trkpt lat="50.597922513261437" lon="6.127512361854315">
        <ele>404.75999999999999</ele>
        <time>2023-05-24T12:42:23Z</time>
      </trkpt>
      <trkpt lat="50.598074058070779" lon="6.128260781988502">
        <ele>402.50999999999999</ele>
        <time>2023-05-24T12:41:48Z</time>
      </trkpt>
      <trkpt lat="50.598165923729539" lon="6.128904512152076">
        <ele>402.26999999999998</ele>
        <time>2023-05-24T12:41:13Z</time>
      </trkpt>
      <trkpt lat="50.597937516868114" lon="6.129535753279924">
        <ele>405.60000000000002</ele>
        <time>2023-05-24T12:40:45Z</time>
      </trkpt>
      <trkpt lat="50.597666529938579" lon="6.130165904760361">
        <ele>408.39999999999998</ele>
        <time>2023-05-24T12:40:16Z</time>
      </trkpt>
      <trkpt lat="50.597331337630749" lon="6.13068625330925">
        <ele>410.73000000000002</ele>
        <time>2023-05-24T12:39:47Z</time>
      </trkpt>
      <trkpt lat="50.596908805891871" lon="6.131080705672503">
        <ele>412.25</ele>
        <time>2023-05-24T12:39:18Z</time>
      </trkpt>
      <trkpt lat="50.596512006595731" lon="6.131463088095188">
        <ele>414.62</ele>
        <time>2023-05-24T12:38:49Z</time>
      </trkpt>
      <trkpt lat="50.596185866743326" lon="6.131982263177633">
        <ele>416.63</ele>
        <time>2023-05-24T12:38:20Z</time>
      </trkpt>
      <trkpt lat="50.595989394932985" lon="6.132610570639372">
        <ele>417.07999999999998</ele>
        <time>2023-05-24T12:36:45Z</time>
      </trkpt>
      <trkpt lat="50.595654202625155" lon="6.133215073496103">
        <ele>417.68000000000001</ele>
        <time>2023-05-24T12:36:10Z</time>
      </trkpt>
      <trkpt lat="50.595236616209149" lon="6.13371186889708">
        <ele>419.69</ele>
        <time>2023-05-24T12:35:32Z</time>
      </trkpt>
      <trkpt lat="50.594926234334707" lon="6.134261721745133">
        <ele>421.79000000000002</ele>
        <time>2023-05-24T12:34:59Z</time>
      </trkpt>
      <trkpt lat="50.594751220196486" lon="6.134892040863633">
        <ele>424.36000000000001</ele>
        <time>2023-05-24T12:34:27Z</time>
      </trkpt>
      <trkpt lat="50.594614678993821" lon="6.135584469884634">
        <ele>426.26999999999998</ele>
        <time>2023-05-24T12:33:54Z</time>
      </trkpt>
      <trkpt lat="50.594631778076291" lon="6.136306822299957">
        <ele>427.49000000000001</ele>
        <time>2023-05-24T12:33:21Z</time>
      </trkpt>
      <trkpt lat="50.594533542171121" lon="6.1370540689677">
        <ele>429.38999999999999</ele>
        <time>2023-05-24T12:32:45Z</time>
      </trkpt>
      <trkpt lat="50.594344027340412" lon="6.137680867686868">
        <ele>432.41000000000003</ele>
        <time>2023-05-24T12:32:07Z</time>
      </trkpt>
      <trkpt lat="50.594313852488995" lon="6.138431383296847">
        <ele>437.14999999999998</ele>
        <time>2023-05-24T12:31:28Z</time>
      </trkpt>
      <trkpt lat="50.594327766448259" lon="6.139290863648057">
        <ele>443.25999999999999</ele>
        <time>2023-05-24T12:30:38Z</time>
      </trkpt>
      <trkpt lat="50.594304213300347" lon="6.140157300978899">
        <ele>450.02999999999997</ele>
        <time>2023-05-24T12:29:48Z</time>
      </trkpt>
      <trkpt lat="50.594449723139405" lon="6.141081238165498">
        <ele>461.52999999999997</ele>
        <time>2023-05-24T12:28:48Z</time>
      </trkpt>
      <trkpt lat="50.594618953764439" lon="6.1419946141541">
        <ele>467.56999999999999</ele>
        <time>2023-05-24T12:27:39Z</time>
      </trkpt>
      <trkpt lat="50.595029415562749" lon="6.142526529729366">
        <ele>473.88999999999999</ele>
        <time>2023-05-24T12:26:40Z</time>
      </trkpt>
      <trkpt lat="50.595431663095951" lon="6.142874378710985">
        <ele>477.30000000000001</ele>
        <time>2023-05-24T12:25:54Z</time>
      </trkpt>
      <trkpt lat="50.595890488475561" lon="6.142963813617826">
        <ele>480.25999999999999</ele>
        <time>2023-05-24T12:25:24Z</time>
      </trkpt>
      <trkpt lat="50.59608293697238" lon="6.142370877787471">
        <ele>482.63</ele>
        <time>2023-05-24T12:24:53Z</time>
      </trkpt>
      <trkpt lat="50.596082769334316" lon="6.141595216467977">
        <ele>483.32999999999998</ele>
        <time>2023-05-24T12:24:41Z</time>
      </trkpt>
      <trkpt lat="50.596037842333317" lon="6.140843275934458">
        <ele>483.57999999999998</ele>
        <time>2023-05-24T12:24:30Z</time>
      </trkpt>
      <trkpt lat="50.595996603369713" lon="6.140043558552861">
        <ele>483.10000000000002</ele>
        <time>2023-05-24T12:24:18Z</time>
      </trkpt>
      <trkpt lat="50.596021162346005" lon="6.139248199760914">
        <ele>483.43000000000001</ele>
        <time>2023-05-24T12:24:06Z</time>
      </trkpt>
      <trkpt lat="50.596062568947673" lon="6.138520399108529">
        <ele>482.76999999999998</ele>
        <time>2023-05-24T12:23:53Z</time>
      </trkpt>
      <trkpt lat="50.59610984288156" lon="6.137807182967663">
        <ele>483.30000000000001</ele>
        <time>2023-05-24T12:23:39Z</time>
      </trkpt>
      <trkpt lat="50.596202965825796" lon="6.137086842209101">
        <ele>483.27999999999997</ele>
        <time>2023-05-24T12:23:12Z</time>
      </trkpt>
      <trkpt lat="50.59628770686686" lon="6.136327860876918">
        <ele>482.5</ele>
        <time>2023-05-24T12:22:44Z</time>
      </trkpt>
      <trkpt lat="50.596374124288559" lon="6.135605676099658">
        <ele>483.95999999999998</ele>
        <time>2023-05-24T12:22:16Z</time>
      </trkpt>
      <trkpt lat="50.596549725160003" lon="6.134932022541761">
        <ele>484.5</ele>
        <time>2023-05-24T12:21:48Z</time>
      </trkpt>
      <trkpt lat="50.596800595521927" lon="6.134288460016251">
        <ele>482.98000000000002</ele>
        <time>2023-05-24T12:21:18Z</time>
      </trkpt>
      <trkpt lat="50.597157245501876" lon="6.1336849629879">
        <ele>483.66000000000003</ele>
        <time>2023-05-24T12:20:44Z</time>
      </trkpt>
      <trkpt lat="50.597537532448769" lon="6.133216163143516">
        <ele>482.44999999999999</ele>
        <time>2023-05-24T12:20:14Z</time>
      </trkpt>
      <trkpt lat="50.597958555445075" lon="6.132842414081097">
        <ele>482.45999999999998</ele>
        <time>2023-05-24T12:19:19Z</time>
      </trkpt>
      <trkpt lat="50.598365915939212" lon="6.132446955889463">
        <ele>484.29000000000002</ele>
        <time>2023-05-24T12:18:45Z</time>
      </trkpt>
      <trkpt lat="50.598702868446708" lon="6.131926858797669">
        <ele>482.11000000000001</ele>
        <time>2023-05-24T12:18:19Z</time>
      </trkpt>
      <trkpt lat="50.599062535911798" lon="6.131424028426409">
        <ele>481.72000000000003</ele>
        <time>2023-05-24T12:17:55Z</time>
      </trkpt>
      <trkpt lat="50.599389178678393" lon="6.130963275209069">
        <ele>480.41000000000003</ele>
        <time>2023-05-24T12:17:32Z</time>
      </trkpt>
      <trkpt lat="50.5997100379318" lon="6.130393976345658">
        <ele>478.52999999999997</ele>
        <time>2023-05-24T12:17:08Z</time>
      </trkpt>
      <trkpt lat="50.60006283223629" lon="6.129811685532332">
        <ele>476.70999999999998</ele>
        <time>2023-05-24T12:16:44Z</time>
      </trkpt>
      <trkpt lat="50.600410178303719" lon="6.129314722493291">
        <ele>475.08999999999997</ele>
        <time>2023-05-24T12:16:31Z</time>
      </trkpt>
      <trkpt lat="50.60086271725595" lon="6.12897265702486">
        <ele>474.76999999999998</ele>
        <time>2023-05-24T12:16:18Z</time>
      </trkpt>
      <trkpt lat="50.601260522380471" lon="6.128522381186485">
        <ele>474.99000000000001</ele>
        <time>2023-05-24T12:16:06Z</time>
      </trkpt>
      <trkpt lat="50.601625554263592" lon="6.127979317680001">
        <ele>475.36000000000001</ele>
        <time>2023-05-24T12:15:53Z</time>
      </trkpt>
      <trkpt lat="50.602049008011818" lon="6.127604562789202">
        <ele>474.88</ele>
        <time>2023-05-24T12:15:41Z</time>
      </trkpt>
      <trkpt lat="50.602432396262884" lon="6.127131823450327">
        <ele>475.47000000000003</ele>
        <time>2023-05-24T12:15:29Z</time>
      </trkpt>
      <trkpt lat="50.602749735116959" lon="6.126587251201272">
        <ele>476.06</ele>
        <time>2023-05-24T12:15:17Z</time>
      </trkpt>
      <trkpt lat="50.603051986545324" lon="6.125941677019">
        <ele>475.75</ele>
        <time>2023-05-24T12:15:05Z</time>
      </trkpt>
      <trkpt lat="50.603339653462172" lon="6.125318901613355">
        <ele>475.75</ele>
        <time>2023-05-24T12:14:54Z</time>
      </trkpt>
      <trkpt lat="50.603596894070506" lon="6.124698976054788">
        <ele>474.94</ele>
        <time>2023-05-24T12:14:43Z</time>
      </trkpt>
      <trkpt lat="50.603772243484855" lon="6.124024065211415">
        <ele>474.55000000000001</ele>
        <time>2023-05-24T12:14:31Z</time>
      </trkpt>
      <trkpt lat="50.603899145498872" lon="6.123273968696594">
        <ele>473.31</ele>
        <time>2023-05-24T12:14:18Z</time>
      </trkpt>
      <trkpt lat="50.603930996730924" lon="6.122492523863912">
        <ele>470.02999999999997</ele>
        <time>2023-05-24T12:14:05Z</time>
      </trkpt>
      <trkpt lat="50.603957651183009" lon="6.121776793152094">
        <ele>466.23000000000002</ele>
        <time>2023-05-24T12:13:54Z</time>
      </trkpt>
      <trkpt lat="50.603993609547615" lon="6.121025271713734">
        <ele>464.37</ele>
        <time>2023-05-24T12:13:45Z</time>
      </trkpt>
      <trkpt lat="50.604016659781337" lon="6.120286239311099">
        <ele>459.80000000000001</ele>
        <time>2023-05-24T12:13:36Z</time>
      </trkpt>
      <trkpt lat="50.604065023362637" lon="6.119509320706129">
        <ele>457.13999999999999</ele>
        <time>2023-05-24T12:13:27Z</time>
      </trkpt>
      <trkpt lat="50.604033675044775" lon="6.1187285464257">
        <ele>453.69</ele>
        <time>2023-05-24T12:13:18Z</time>
      </trkpt>
      <trkpt lat="50.603971229866147" lon="6.117984652519226">
        <ele>450.91000000000003</ele>
        <time>2023-05-24T12:13:09Z</time>
      </trkpt>
      <trkpt lat="50.604162840172648" lon="6.117293480783701">
        <ele>450.25999999999999</ele>
        <time>2023-05-24T12:13:01Z</time>
      </trkpt>
      <trkpt lat="50.604419158771634" lon="6.116682775318623">
        <ele>447.67000000000002</ele>
        <time>2023-05-24T12:12:53Z</time>
      </trkpt>
      <trkpt lat="50.604755859822035" lon="6.11612755805254">
        <ele>445.51999999999998</ele>
        <time>2023-05-24T12:12:45Z</time>
      </trkpt>
      <trkpt lat="50.605078730732203" lon="6.115527497604489">
        <ele>444.64999999999998</ele>
        <time>2023-05-24T12:12:37Z</time>
      </trkpt>
      <trkpt lat="50.605379892513156" lon="6.114988289773464">
        <ele>443.06999999999999</ele>
        <time>2023-05-24T12:12:29Z</time>
      </trkpt>
      <trkpt lat="50.605729417875409" lon="6.114424522966147">
        <ele>440.38999999999999</ele>
        <time>2023-05-24T12:12:21Z</time>
      </trkpt>
      <trkpt lat="50.606055809184909" lon="6.113833766430616">
        <ele>438.62</ele>
        <time>2023-05-24T12:12:12Z</time>
      </trkpt>
      <trkpt lat="50.606441125273705" lon="6.113315932452679">
        <ele>435.63999999999999</ele>
        <time>2023-05-24T12:12:02Z</time>
      </trkpt>
      <trkpt lat="50.606817472726107" lon="6.112888958305121">
        <ele>433.52999999999997</ele>
        <time>2023-05-24T12:11:53Z</time>
      </trkpt>
      <trkpt lat="50.607097763568163" lon="6.112232068553567">
        <ele>432.12</ele>
        <time>2023-05-24T12:11:44Z</time>
      </trkpt>
      <trkpt lat="50.607393141835928" lon="6.111609544605017">
        <ele>429.75</ele>
        <time>2023-05-24T12:11:35Z</time>
      </trkpt>
      <trkpt lat="50.607728082686663" lon="6.111036976799369">
        <ele>427.11000000000001</ele>
        <time>2023-05-24T12:11:25Z</time>
      </trkpt>
      <trkpt lat="50.608171401545405" lon="6.110617714002729">
        <ele>424.82999999999998</ele>
        <time>2023-05-24T12:11:15Z</time>
      </trkpt>
      <trkpt lat="50.608620839193463" lon="6.110261483117938">
        <ele>423.80000000000001</ele>
        <time>2023-05-24T12:11:05Z</time>
      </trkpt>
      <trkpt lat="50.609135907143354" lon="6.110071213915944">
        <ele>422.81</ele>
        <time>2023-05-24T12:10:53Z</time>
      </trkpt>
      <trkpt lat="50.609631026163697" lon="6.10997574403882">
        <ele>422.50999999999999</ele>
        <time>2023-05-24T12:10:40Z</time>
      </trkpt>
      <trkpt lat="50.610126061365008" lon="6.109739542007446">
        <ele>422.63999999999999</ele>
        <time>2023-05-24T12:10:27Z</time>
      </trkpt>
      <trkpt lat="50.610648170113564" lon="6.109493281692267">
        <ele>422.48000000000002</ele>
        <time>2023-05-24T12:10:03Z</time>
      </trkpt>
      <trkpt lat="50.611086208373308" lon="6.109347101300955">
        <ele>425.24000000000001</ele>
        <time>2023-05-24T12:09:32Z</time>
      </trkpt>
      <trkpt lat="50.611555762588978" lon="6.10980031080544">
        <ele>430.07999999999998</ele>
        <time>2023-05-24T12:08:56Z</time>
      </trkpt>
      <trkpt lat="50.612067729234695" lon="6.110281515866518">
        <ele>435.38999999999999</ele>
        <time>2023-05-24T12:08:19Z</time>
      </trkpt>
      <trkpt lat="50.612494451925159" lon="6.110713183879852">
        <ele>438.77999999999997</ele>
        <time>2023-05-24T12:07:46Z</time>
      </trkpt>
      <trkpt lat="50.612987140193582" lon="6.111269742250443">
        <ele>443.88</ele>
        <time>2023-05-24T12:07:10Z</time>
      </trkpt>
      <trkpt lat="50.613468261435628" lon="6.111726304516196">
        <ele>448.81</ele>
        <time>2023-05-24T12:06:31Z</time>
      </trkpt>
      <trkpt lat="50.613959524780512" lon="6.112242294475436">
        <ele>452.61000000000001</ele>
        <time>2023-05-24T12:05:52Z</time>
      </trkpt>
      <trkpt lat="50.61438356526196" lon="6.112679913640022">
        <ele>454.44</ele>
        <time>2023-05-24T12:05:19Z</time>
      </trkpt>
      <trkpt lat="50.614726552739739" lon="6.112975124269724">
        <ele>455.81</ele>
        <time>2023-05-24T12:04:20Z</time>
      </trkpt>
      <trkpt lat="50.614767875522375" lon="6.112888706848025">
        <ele>454.62</ele>
        <time>2023-05-24T12:01:06Z</time>
      </trkpt>
      <trkpt lat="50.614728899672627" lon="6.112914523109794">
        <ele>448.98000000000002</ele>
        <time>2023-05-24T11:24:12Z</time>
      </trkpt>
      <trkpt lat="50.614744322374463" lon="6.112953163683415">
        <ele>448.63</ele>
        <time>2023-05-24T11:20:47Z</time>
      </trkpt>
      <trkpt lat="50.614701239392161" lon="6.112922737374902">
        <ele>448.56</ele>
        <time>2023-05-24T11:18:19Z</time>
      </trkpt>
      <trkpt lat="50.614779526367784" lon="6.113033797591925">
        <ele>447.11000000000001</ele>
        <time>2023-05-24T11:11:02Z</time>
      </trkpt>
      <trkpt lat="50.61468112282455" lon="6.113035473972559">
        <ele>447.92000000000002</ele>
        <time>2023-05-24T11:07:44Z</time>
      </trkpt>
      <trkpt lat="50.615005837753415" lon="6.113817673176527">
        <ele>448.43000000000001</ele>
        <time>2023-05-24T11:07:02Z</time>
      </trkpt>
      <trkpt lat="50.615229718387127" lon="6.11452435143292">
        <ele>447.83999999999997</ele>
        <time>2023-05-24T11:06:47Z</time>
      </trkpt>
      <trkpt lat="50.615453431382775" lon="6.11516984179616">
        <ele>447.05000000000001</ele>
        <time>2023-05-24T11:06:33Z</time>
      </trkpt>
      <trkpt lat="50.615680580958724" lon="6.11584902741015">
        <ele>446.68000000000001</ele>
        <time>2023-05-24T11:06:20Z</time>
      </trkpt>
      <trkpt lat="50.615905718877912" lon="6.116511365398765">
        <ele>445.37</ele>
        <time>2023-05-24T11:06:07Z</time>
      </trkpt>
      <trkpt lat="50.616136305034161" lon="6.117178564891219">
        <ele>443.76999999999998</ele>
        <time>2023-05-24T11:05:53Z</time>
      </trkpt>
      <trkpt lat="50.616337554529309" lon="6.117827910929918">
        <ele>441.18000000000001</ele>
        <time>2023-05-24T11:05:39Z</time>
      </trkpt>
      <trkpt lat="50.616472670808434" lon="6.118538193404675">
        <ele>438.58999999999997</ele>
        <time>2023-05-24T11:05:25Z</time>
      </trkpt>
      <trkpt lat="50.616601752117276" lon="6.119263730943203">
        <ele>436.49000000000001</ele>
        <time>2023-05-24T11:05:11Z</time>
      </trkpt>
      <trkpt lat="50.616716081276536" lon="6.119988095015287">
        <ele>433.54000000000002</ele>
        <time>2023-05-24T11:04:57Z</time>
      </trkpt>
      <trkpt lat="50.616852873936296" lon="6.120690163224936">
        <ele>431.23000000000002</ele>
        <time>2023-05-24T11:04:44Z</time>
      </trkpt>
      <trkpt lat="50.616966197267175" lon="6.121390638872981">
        <ele>429.72000000000003</ele>
        <time>2023-05-24T11:04:32Z</time>
      </trkpt>
      <trkpt lat="50.617080107331276" lon="6.122116511687636">
        <ele>426.68000000000001</ele>
        <time>2023-05-24T11:04:19Z</time>
      </trkpt>
      <trkpt lat="50.61721078120172" lon="6.122888987883925">
        <ele>423.52999999999997</ele>
        <time>2023-05-24T11:04:06Z</time>
      </trkpt>
      <trkpt lat="50.617540273815393" lon="6.123539339751005">
        <ele>421.04000000000002</ele>
        <time>2023-05-24T11:03:54Z</time>
      </trkpt>
      <trkpt lat="50.61802089214325" lon="6.123922392725945">
        <ele>420.06</ele>
        <time>2023-05-24T11:03:41Z</time>
      </trkpt>
      <trkpt lat="50.618488686159253" lon="6.12422120757401">
        <ele>417.56</ele>
        <time>2023-05-24T11:03:27Z</time>
      </trkpt>
      <trkpt lat="50.618962766602635" lon="6.124337213113904">
        <ele>414.25999999999999</ele>
        <time>2023-05-24T11:03:13Z</time>
      </trkpt>
      <trkpt lat="50.619417568668723" lon="6.124397730454803">
        <ele>412.20999999999998</ele>
        <time>2023-05-24T11:02:52Z</time>
      </trkpt>
      <trkpt lat="50.619871784001589" lon="6.124244090169668">
        <ele>408.72000000000003</ele>
        <time>2023-05-24T11:02:25Z</time>
      </trkpt>
      <trkpt lat="50.620299344882369" lon="6.123920129612088">
        <ele>405.88999999999999</ele>
        <time>2023-05-24T11:02:01Z</time>
      </trkpt>
      <trkpt lat="50.620657587423921" lon="6.124051222577691">
        <ele>402.63</ele>
        <time>2023-05-24T11:01:32Z</time>
      </trkpt>
      <trkpt lat="50.620750710368156" lon="6.124828895553947">
        <ele>399.56999999999999</ele>
        <time>2023-05-24T11:01:01Z</time>
      </trkpt>
      <trkpt lat="50.620543928816915" lon="6.125513529404998">
        <ele>396.57999999999998</ele>
        <time>2023-05-24T11:00:32Z</time>
      </trkpt>
      <trkpt lat="50.620714500546455" lon="6.126166144385934">
        <ele>392.51999999999998</ele>
        <time>2023-05-24T11:00:00Z</time>
      </trkpt>
      <trkpt lat="50.621261168271303" lon="6.126190116629005">
        <ele>388.99000000000001</ele>
        <time>2023-05-24T10:59:25Z</time>
      </trkpt>
      <trkpt lat="50.621646651998162" lon="6.125711007043719">
        <ele>385.81</ele>
        <time>2023-05-24T10:58:54Z</time>
      </trkpt>
      <trkpt lat="50.621962063014507" lon="6.126041589304805">
        <ele>382.97000000000003</ele>
        <time>2023-05-24T10:58:22Z</time>
      </trkpt>
      <trkpt lat="50.621521258726716" lon="6.126595716923475">
        <ele>382.89999999999998</ele>
        <time>2023-05-24T10:57:50Z</time>
      </trkpt>
      <trkpt lat="50.621472224593163" lon="6.127571286633611">
        <ele>380.44999999999999</ele>
        <time>2023-05-24T10:56:45Z</time>
      </trkpt>
      <trkpt lat="50.621963823214173" lon="6.127817295491695">
        <ele>379.56</ele>
        <time>2023-05-24T10:56:11Z</time>
      </trkpt>
      <trkpt lat="50.622468497604132" lon="6.127964984625578">
        <ele>378.61000000000001</ele>
        <time>2023-05-24T10:55:41Z</time>
      </trkpt>
      <trkpt lat="50.622873594984412" lon="6.128508131951094">
        <ele>377.36000000000001</ele>
        <time>2023-05-24T10:55:10Z</time>
      </trkpt>
      <trkpt lat="50.623199651017785" lon="6.129123196005821">
        <ele>376.45999999999998</ele>
        <time>2023-05-24T10:54:38Z</time>
      </trkpt>
      <trkpt lat="50.623447671532631" lon="6.129806572571397">
        <ele>375.25999999999999</ele>
        <time>2023-05-24T10:54:04Z</time>
      </trkpt>
      <trkpt lat="50.623756628483534" lon="6.130376206710935">
        <ele>374.26999999999998</ele>
        <time>2023-05-24T10:53:35Z</time>
      </trkpt>
      <trkpt lat="50.624093078076839" lon="6.13090367987752">
        <ele>373.99000000000001</ele>
        <time>2023-05-24T10:53:07Z</time>
      </trkpt>
      <trkpt lat="50.62442391179502" lon="6.131532741710544">
        <ele>373.63</ele>
        <time>2023-05-24T10:52:37Z</time>
      </trkpt>
      <trkpt lat="50.624670591205359" lon="6.132223997265101">
        <ele>373.04000000000002</ele>
        <time>2023-05-24T10:52:08Z</time>
      </trkpt>
      <trkpt lat="50.624889023602009" lon="6.132945595309138">
        <ele>373.00999999999999</ele>
        <time>2023-05-24T10:51:40Z</time>
      </trkpt>
      <trkpt lat="50.625322451815009" lon="6.133207278326154">
        <ele>373.16000000000003</ele>
        <time>2023-05-24T10:51:12Z</time>
      </trkpt>
      <trkpt lat="50.625793095678091" lon="6.133452616631985">
        <ele>372.32999999999998</ele>
        <time>2023-05-24T10:50:42Z</time>
      </trkpt>
      <trkpt lat="50.62623918056488" lon="6.133207781240344">
        <ele>371.05000000000001</ele>
        <time>2023-05-24T10:50:15Z</time>
      </trkpt>
      <trkpt lat="50.626713680103421" lon="6.133227311074734">
        <ele>370.60000000000002</ele>
        <time>2023-05-24T10:49:46Z</time>
      </trkpt>
      <trkpt lat="50.627139816060662" lon="6.133533334359527">
        <ele>370.69</ele>
        <time>2023-05-24T10:49:17Z</time>
      </trkpt>
      <trkpt lat="50.627508452162147" lon="6.134054185822606">
        <ele>370.02999999999997</ele>
        <time>2023-05-24T10:48:47Z</time>
      </trkpt>
      <trkpt lat="50.62784724868834" lon="6.13459481857717">
        <ele>369.24000000000001</ele>
        <time>2023-05-24T10:48:18Z</time>
      </trkpt>
      <trkpt lat="50.628261985257268" lon="6.135068228468299">
        <ele>368.42000000000002</ele>
        <time>2023-05-24T10:47:47Z</time>
      </trkpt>
      <trkpt lat="50.628688959404826" lon="6.135377520695329">
        <ele>366.36000000000001</ele>
        <time>2023-05-24T10:47:17Z</time>
      </trkpt>
      <trkpt lat="50.629138564690948" lon="6.135590588673949">
        <ele>364.49000000000001</ele>
        <time>2023-05-24T10:46:49Z</time>
      </trkpt>
      <trkpt lat="50.629620021209121" lon="6.135770883411169">
        <ele>362.74000000000001</ele>
        <time>2023-05-24T10:46:20Z</time>
      </trkpt>
      <trkpt lat="50.630059065297246" lon="6.135966768488288">
        <ele>362.24000000000001</ele>
        <time>2023-05-24T10:45:53Z</time>
      </trkpt>
      <trkpt lat="50.630514873191714" lon="6.136115547269583">
        <ele>362</ele>
        <time>2023-05-24T10:45:23Z</time>
      </trkpt>
      <trkpt lat="50.631013009697199" lon="6.136412099003792">
        <ele>360.85000000000002</ele>
        <time>2023-05-24T10:44:49Z</time>
      </trkpt>
      <trkpt lat="50.6313272472471" lon="6.137006711214781">
        <ele>359.62</ele>
        <time>2023-05-24T10:44:16Z</time>
      </trkpt>
      <trkpt lat="50.631544757634401" lon="6.137253055348992">
        <ele>357.87</ele>
        <time>2023-05-24T10:43:02Z</time>
      </trkpt>
      <trkpt lat="50.631687501445413" lon="6.137259425595403">
        <ele>357.11000000000001</ele>
        <time>2023-05-24T10:41:01Z</time>
      </trkpt>
      <trkpt lat="50.632163342088461" lon="6.137397978454828">
        <ele>358.33999999999997</ele>
        <time>2023-05-24T10:39:55Z</time>
      </trkpt>
      <trkpt lat="50.632432401180267" lon="6.138284951448441">
        <ele>358.02999999999997</ele>
        <time>2023-05-24T10:39:10Z</time>
      </trkpt>
      <trkpt lat="50.632719481363893" lon="6.139087015762925">
        <ele>358.74000000000001</ele>
        <time>2023-05-24T10:38:31Z</time>
      </trkpt>
      <trkpt lat="50.633057272061706" lon="6.13994088023901">
        <ele>360.22000000000003</ele>
        <time>2023-05-24T10:37:43Z</time>
      </trkpt>
      <trkpt lat="50.633476451039314" lon="6.14068946801126">
        <ele>363.75999999999999</ele>
        <time>2023-05-24T10:37:00Z</time>
      </trkpt>
      <trkpt lat="50.63384466804564" lon="6.141619272530079">
        <ele>368.10000000000002</ele>
        <time>2023-05-24T10:36:10Z</time>
      </trkpt>
      <trkpt lat="50.634185811504722" lon="6.142548071220517">
        <ele>370.31</ele>
        <time>2023-05-24T10:35:24Z</time>
      </trkpt>
      <trkpt lat="50.634419079869986" lon="6.143532441928983">
        <ele>370.94999999999999</ele>
        <time>2023-05-24T10:34:36Z</time>
      </trkpt>
      <trkpt lat="50.634625358507037" lon="6.144375158473849">
        <ele>370.04000000000002</ele>
        <time>2023-05-24T10:33:51Z</time>
      </trkpt>
      <trkpt lat="50.635024253278971" lon="6.145132463425398">
        <ele>366.98000000000002</ele>
        <time>2023-05-24T10:33:12Z</time>
      </trkpt>
      <trkpt lat="50.635177055373788" lon="6.145957075059414">
        <ele>367.61000000000001</ele>
        <time>2023-05-24T10:32:33Z</time>
      </trkpt>
      <trkpt lat="50.635610902681947" lon="6.146778166294098">
        <ele>369.19</ele>
        <time>2023-05-24T10:31:50Z</time>
      </trkpt>
      <trkpt lat="50.636031087487936" lon="6.147557599470019">
        <ele>371.12</ele>
        <time>2023-05-24T10:31:02Z</time>
      </trkpt>
      <trkpt lat="50.6364128831774" lon="6.148180710151792">
        <ele>372.83999999999997</ele>
        <time>2023-05-24T10:30:23Z</time>
      </trkpt>
      <trkpt lat="50.636749332770705" lon="6.148914881050587">
        <ele>374.44999999999999</ele>
        <time>2023-05-24T10:29:46Z</time>
      </trkpt>
      <trkpt lat="50.637169685214758" lon="6.149580990895629">
        <ele>376.67000000000002</ele>
        <time>2023-05-24T10:29:03Z</time>
      </trkpt>
      <trkpt lat="50.63749959692359" lon="6.150240814313293">
        <ele>377.24000000000001</ele>
        <time>2023-05-24T10:28:24Z</time>
      </trkpt>
      <trkpt lat="50.63781525939703" lon="6.150843808427453">
        <ele>378.22000000000003</ele>
        <time>2023-05-24T10:27:16Z</time>
      </trkpt>
      <trkpt lat="50.638077948242426" lon="6.151670766994357">
        <ele>383.94999999999999</ele>
        <time>2023-05-24T10:26:29Z</time>
      </trkpt>
      <trkpt lat="50.63839235343039" lon="6.151527520269156">
        <ele>397.19</ele>
        <time>2023-05-24T10:25:32Z</time>
      </trkpt>
      <trkpt lat="50.638780184090137" lon="6.150830062106252">
        <ele>402.63</ele>
        <time>2023-05-24T10:24:44Z</time>
      </trkpt>
      <trkpt lat="50.63924060203135" lon="6.150346593931317">
        <ele>403.82999999999998</ele>
        <time>2023-05-24T10:24:01Z</time>
      </trkpt>
      <trkpt lat="50.639615608379245" lon="6.150237880647183">
        <ele>400.76999999999998</ele>
        <time>2023-05-24T10:22:39Z</time>
      </trkpt>
      <trkpt lat="50.640247268602252" lon="6.150133274495602">
        <ele>400.63999999999999</ele>
        <time>2023-05-24T10:21:56Z</time>
      </trkpt>
      <trkpt lat="50.64091807231307" lon="6.150005618110299">
        <ele>402.62</ele>
        <time>2023-05-24T10:21:10Z</time>
      </trkpt>
      <trkpt lat="50.641505727544427" lon="6.149945436045528">
        <ele>404.60000000000002</ele>
        <time>2023-05-24T10:20:29Z</time>
      </trkpt>
      <trkpt lat="50.642081564292312" lon="6.14988449960947">
        <ele>410.69999999999999</ele>
        <time>2023-05-24T10:19:48Z</time>
      </trkpt>
      <trkpt lat="50.642659161239862" lon="6.149389296770096">
        <ele>413.31</ele>
        <time>2023-05-24T10:19:03Z</time>
      </trkpt>
      <trkpt lat="50.643094349652529" lon="6.148821590468288">
        <ele>416.51999999999998</ele>
        <time>2023-05-24T10:18:21Z</time>
      </trkpt>
      <trkpt lat="50.643635150045156" lon="6.14822119474411">
        <ele>418.04000000000002</ele>
        <time>2023-05-24T10:17:28Z</time>
      </trkpt>
      <trkpt lat="50.644019963219762" lon="6.147760106250644">
        <ele>420.43000000000001</ele>
        <time>2023-05-24T10:16:52Z</time>
      </trkpt>
      <trkpt lat="50.644409889355302" lon="6.14731184206903">
        <ele>421.25</ele>
        <time>2023-05-24T10:16:20Z</time>
      </trkpt>
      <trkpt lat="50.64479922875762" lon="6.146849077194929">
        <ele>422.5</ele>
        <time>2023-05-24T10:15:44Z</time>
      </trkpt>
      <trkpt lat="50.645173648372293" lon="6.146404081955552">
        <ele>424.44999999999999</ele>
        <time>2023-05-24T10:15:02Z</time>
      </trkpt>
      <trkpt lat="50.645480174571276" lon="6.146137118339539">
        <ele>424.01999999999998</ele>
        <time>2023-05-24T10:13:12Z</time>
      </trkpt>
      <trkpt lat="50.645946459844708" lon="6.145683154463768">
        <ele>422.81999999999999</ele>
        <time>2023-05-24T10:12:39Z</time>
      </trkpt>
      <trkpt lat="50.6463613640517" lon="6.145193064585328">
        <ele>419.76999999999998</ele>
        <time>2023-05-24T10:12:07Z</time>
      </trkpt>
      <trkpt lat="50.646779537200928" lon="6.144690485671163">
        <ele>417.63</ele>
        <time>2023-05-24T10:11:38Z</time>
      </trkpt>
      <trkpt lat="50.647200392559171" lon="6.144231576472521">
        <ele>413.73000000000002</ele>
        <time>2023-05-24T10:11:05Z</time>
      </trkpt>
      <trkpt lat="50.647649746388197" lon="6.14369454793632">
        <ele>407.60000000000002</ele>
        <time>2023-05-24T10:10:34Z</time>
      </trkpt>
      <trkpt lat="50.648103291168809" lon="6.143201189115644">
        <ele>399.07999999999998</ele>
        <time>2023-05-24T10:10:02Z</time>
      </trkpt>
      <trkpt lat="50.648559937253594" lon="6.14272459410131">
        <ele>394.52999999999997</ele>
        <time>2023-05-24T10:09:26Z</time>
      </trkpt>
      <trkpt lat="50.648986911401153" lon="6.14225747063756">
        <ele>392.12</ele>
        <time>2023-05-24T10:08:54Z</time>
      </trkpt>
      <trkpt lat="50.649435091763735" lon="6.141846086829901">
        <ele>389.99000000000001</ele>
        <time>2023-05-24T10:08:20Z</time>
      </trkpt>
      <trkpt lat="50.649922331795096" lon="6.141208475455642">
        <ele>386.20999999999998</ele>
        <time>2023-05-24T10:07:42Z</time>
      </trkpt>
      <trkpt lat="50.650375122204423" lon="6.140723330900073">
        <ele>384.04000000000002</ele>
        <time>2023-05-24T10:07:04Z</time>
      </trkpt>
      <trkpt lat="50.650818273425102" lon="6.14019543863833">
        <ele>381.75</ele>
        <time>2023-05-24T10:06:29Z</time>
      </trkpt>
      <trkpt lat="50.651271482929587" lon="6.139647178351879">
        <ele>380.12</ele>
        <time>2023-05-24T10:05:52Z</time>
      </trkpt>
      <trkpt lat="50.651815887540579" lon="6.139138648286462">
        <ele>378.19999999999999</ele>
        <time>2023-05-24T10:05:15Z</time>
      </trkpt>
      <trkpt lat="50.6522913929075" lon="6.138556189835072">
        <ele>375.33999999999997</ele>
        <time>2023-05-24T10:04:47Z</time>
      </trkpt>
      <trkpt lat="50.652723731473088" lon="6.138060064986348">
        <ele>372.04000000000002</ele>
        <time>2023-05-24T10:04:36Z</time>
      </trkpt>
      <trkpt lat="50.653215330094099" lon="6.137493280693889">
        <ele>369.38</ele>
        <time>2023-05-24T10:04:21Z</time>
      </trkpt>
      <trkpt lat="50.653729224577546" lon="6.136907218024135">
        <ele>368.07999999999998</ele>
        <time>2023-05-24T10:03:46Z</time>
      </trkpt>
      <trkpt lat="50.654127784073353" lon="6.136437244713306">
        <ele>366.74000000000001</ele>
        <time>2023-05-24T10:03:28Z</time>
      </trkpt>
      <trkpt lat="50.65452734939754" lon="6.135956291109324">
        <ele>364.13</ele>
        <time>2023-05-24T10:03:15Z</time>
      </trkpt>
      <trkpt lat="50.65494267269969" lon="6.135480618104339">
        <ele>362.47000000000003</ele>
        <time>2023-05-24T10:03:03Z</time>
      </trkpt>
      <trkpt lat="50.655378447845578" lon="6.135009974241257">
        <ele>360.45999999999998</ele>
        <time>2023-05-24T10:02:50Z</time>
      </trkpt>
      <trkpt lat="50.655790334567428" lon="6.134618707001209">
        <ele>359.05000000000001</ele>
        <time>2023-05-24T10:02:34Z</time>
      </trkpt>
      <trkpt lat="50.656361477449536" lon="6.134898159652948">
        <ele>356.56</ele>
        <time>2023-05-24T10:01:59Z</time>
      </trkpt>
      <trkpt lat="50.656949635595083" lon="6.134888604283333">
        <ele>354.91000000000003</ele>
        <time>2023-05-24T10:01:18Z</time>
      </trkpt>
      <trkpt lat="50.657523544505239" lon="6.135024977847934">
        <ele>352.32999999999998</ele>
        <time>2023-05-24T10:00:40Z</time>
      </trkpt>
      <trkpt lat="50.657983794808388" lon="6.135374000295997">
        <ele>351.48000000000002</ele>
        <time>2023-05-24T10:00:04Z</time>
      </trkpt>
      <trkpt lat="50.658358549699187" lon="6.13581882789731">
        <ele>350.81999999999999</ele>
        <time>2023-05-24T09:59:33Z</time>
      </trkpt>
      <trkpt lat="50.658750738948584" lon="6.13628352060914">
        <ele>351</ele>
        <time>2023-05-24T09:59:01Z</time>
      </trkpt>
      <trkpt lat="50.659189196303487" lon="6.136731030419469">
        <ele>351.06999999999999</ele>
        <time>2023-05-24T09:58:30Z</time>
      </trkpt>
      <trkpt lat="50.659712813794613" lon="6.137261437252164">
        <ele>350.87</ele>
        <time>2023-05-24T09:58:00Z</time>
      </trkpt>
      <trkpt lat="50.66026484593749" lon="6.137484814971685">
        <ele>351.61000000000001</ele>
        <time>2023-05-24T09:57:43Z</time>
      </trkpt>
      <trkpt lat="50.660758288577199" lon="6.13767609000206">
        <ele>351.99000000000001</ele>
        <time>2023-05-24T09:57:30Z</time>
      </trkpt>
      <trkpt lat="50.661298083141446" lon="6.137764183804393">
        <ele>353</ele>
        <time>2023-05-24T09:57:19Z</time>
      </trkpt>
      <trkpt lat="50.661866124719381" lon="6.137902066111565">
        <ele>354.31999999999999</ele>
        <time>2023-05-24T09:57:05Z</time>
      </trkpt>
      <trkpt lat="50.662347078323364" lon="6.138022933155298">
        <ele>355.75999999999999</ele>
        <time>2023-05-24T09:56:51Z</time>
      </trkpt>
      <trkpt lat="50.662813447415829" lon="6.138102142140269">
        <ele>356.74000000000001</ele>
        <time>2023-05-24T09:56:39Z</time>
      </trkpt>
      <trkpt lat="50.663271518424153" lon="6.138199456036091">
        <ele>357.05000000000001</ele>
        <time>2023-05-24T09:56:27Z</time>
      </trkpt>
      <trkpt lat="50.663775103166699" lon="6.138300793245435">
        <ele>357.89999999999998</ele>
        <time>2023-05-24T09:56:02Z</time>
      </trkpt>
      <trkpt lat="50.664218170568347" lon="6.138504724949598">
        <ele>357.41000000000003</ele>
        <time>2023-05-24T09:55:32Z</time>
      </trkpt>
      <trkpt lat="50.664554955437779" lon="6.139021720737219">
        <ele>356.38</ele>
        <time>2023-05-24T09:55:02Z</time>
      </trkpt>
      <trkpt lat="50.664895595982671" lon="6.1395372916013">
        <ele>355.13999999999999</ele>
        <time>2023-05-24T09:54:31Z</time>
      </trkpt>
      <trkpt lat="50.665219472721219" lon="6.14004104398191">
        <ele>354.19999999999999</ele>
        <time>2023-05-24T09:54:00Z</time>
      </trkpt>
      <trkpt lat="50.66553714685142" lon="6.140564661473036">
        <ele>353.69</ele>
        <time>2023-05-24T09:53:27Z</time>
      </trkpt>
      <trkpt lat="50.665875189006329" lon="6.141068413853645">
        <ele>352.61000000000001</ele>
        <time>2023-05-24T09:52:52Z</time>
      </trkpt>
      <trkpt lat="50.666261846199632" lon="6.141664199531078">
        <ele>350.13</ele>
        <time>2023-05-24T09:52:17Z</time>
      </trkpt>
      <trkpt lat="50.666595110669732" lon="6.142198629677296">
        <ele>349.30000000000001</ele>
        <time>2023-05-24T09:51:44Z</time>
      </trkpt>
      <trkpt lat="50.666914042085409" lon="6.142855267971754">
        <ele>347.68000000000001</ele>
        <time>2023-05-24T09:51:02Z</time>
      </trkpt>
      <trkpt lat="50.667095175012946" lon="6.142981499433518">
        <ele>347.55000000000001</ele>
        <time>2023-05-24T09:48:26Z</time>
      </trkpt>
      <trkpt lat="50.667476886883378" lon="6.143587846308947">
        <ele>346.43000000000001</ele>
        <time>2023-05-24T09:48:11Z</time>
      </trkpt>
      <trkpt lat="50.667834207415581" lon="6.144154211506248">
        <ele>345.26999999999998</ele>
        <time>2023-05-24T09:47:58Z</time>
      </trkpt>
      <trkpt lat="50.668197562918067" lon="6.144682439044118">
        <ele>344.44999999999999</ele>
        <time>2023-05-24T09:47:46Z</time>
      </trkpt>
      <trkpt lat="50.668539963662624" lon="6.145202117040753">
        <ele>344.61000000000001</ele>
        <time>2023-05-24T09:47:34Z</time>
      </trkpt>
      <trkpt lat="50.668893177062273" lon="6.145755741745234">
        <ele>343.30000000000001</ele>
        <time>2023-05-24T09:47:22Z</time>
      </trkpt>
      <trkpt lat="50.669259466230869" lon="6.146269552409649">
        <ele>342.32999999999998</ele>
        <time>2023-05-24T09:47:09Z</time>
      </trkpt>
      <trkpt lat="50.669593317434192" lon="6.146794427186251">
        <ele>341.31</ele>
        <time>2023-05-24T09:46:56Z</time>
      </trkpt>
      <trkpt lat="50.669973604381084" lon="6.147405467927456">
        <ele>339.31</ele>
        <time>2023-05-24T09:46:30Z</time>
      </trkpt>
      <trkpt lat="50.670310975983739" lon="6.148023130372167">
        <ele>337.31</ele>
        <time>2023-05-24T09:46:12Z</time>
      </trkpt>
      <trkpt lat="50.670621525496244" lon="6.148677421733737">
        <ele>336.33999999999997</ele>
        <time>2023-05-24T09:46:00Z</time>
      </trkpt>
      <trkpt lat="50.67097457125783" lon="6.149359038099647">
        <ele>334.73000000000002</ele>
        <time>2023-05-24T09:45:42Z</time>
      </trkpt>
      <trkpt lat="50.67131613381207" lon="6.149897575378418">
        <ele>333.08999999999997</ele>
        <time>2023-05-24T09:45:28Z</time>
      </trkpt>
      <trkpt lat="50.671660713851452" lon="6.150518339127302">
        <ele>332.19999999999999</ele>
        <time>2023-05-24T09:45:14Z</time>
      </trkpt>
      <trkpt lat="50.671980902552605" lon="6.151083027943969">
        <ele>331.98000000000002</ele>
        <time>2023-05-24T09:45:02Z</time>
      </trkpt>
      <trkpt lat="50.672333864495158" lon="6.151741677895188">
        <ele>331.30000000000001</ele>
        <time>2023-05-24T09:44:49Z</time>
      </trkpt>
      <trkpt lat="50.672629829496145" lon="6.152351712808013">
        <ele>329.88999999999999</ele>
        <time>2023-05-24T09:44:35Z</time>
      </trkpt>
      <trkpt lat="50.672982456162572" lon="6.152868960052729">
        <ele>327.95999999999998</ele>
        <time>2023-05-24T09:44:16Z</time>
      </trkpt>
      <trkpt lat="50.673435246571898" lon="6.153242792934179">
        <ele>325.88999999999999</ele>
        <time>2023-05-24T09:44:04Z</time>
      </trkpt>
      <trkpt lat="50.67399038001895" lon="6.153604052960873">
        <ele>324.43000000000001</ele>
        <time>2023-05-24T09:43:51Z</time>
      </trkpt>
      <trkpt lat="50.67450737580657" lon="6.154004288837314">
        <ele>322.38</ele>
        <time>2023-05-24T09:43:36Z</time>
      </trkpt>
      <trkpt lat="50.674984976649284" lon="6.154426569119096">
        <ele>319.99000000000001</ele>
        <time>2023-05-24T09:43:11Z</time>
      </trkpt>
      <trkpt lat="50.675560897216201" lon="6.154818758368492">
        <ele>318.26999999999998</ele>
        <time>2023-05-24T09:42:31Z</time>
      </trkpt>
      <trkpt lat="50.675896843895316" lon="6.154013844206929">
        <ele>317.69999999999999</ele>
        <time>2023-05-24T09:41:49Z</time>
      </trkpt>
      <trkpt lat="50.676176715642214" lon="6.153195351362228">
        <ele>315.38999999999999</ele>
        <time>2023-05-24T09:41:11Z</time>
      </trkpt>
      <trkpt lat="50.676426663994789" lon="6.152475597336888">
        <ele>313.48000000000002</ele>
        <time>2023-05-24T09:40:35Z</time>
      </trkpt>
      <trkpt lat="50.676742577925324" lon="6.151550654321909">
        <ele>311.79000000000002</ele>
        <time>2023-05-24T09:39:57Z</time>
      </trkpt>
      <trkpt lat="50.677084140479565" lon="6.150644151493907">
        <ele>308.94999999999999</ele>
        <time>2023-05-24T09:39:12Z</time>
      </trkpt>
      <trkpt lat="50.677448669448495" lon="6.149850049987435">
        <ele>308.33999999999997</ele>
        <time>2023-05-24T09:38:29Z</time>
      </trkpt>
      <trkpt lat="50.677757961675525" lon="6.14901177585125">
        <ele>308.20999999999998</ele>
        <time>2023-05-24T09:37:49Z</time>
      </trkpt>
      <trkpt lat="50.678270515054464" lon="6.148499809205532">
        <ele>308.33999999999997</ele>
        <time>2023-05-24T09:37:13Z</time>
      </trkpt>
      <trkpt lat="50.678957412019372" lon="6.148337367922068">
        <ele>307.75</ele>
        <time>2023-05-24T09:36:28Z</time>
      </trkpt>
      <trkpt lat="50.679538361728191" lon="6.148161431774497">
        <ele>305.89999999999998</ele>
        <time>2023-05-24T09:35:48Z</time>
      </trkpt>
      <trkpt lat="50.679977321997285" lon="6.14770470187068">
        <ele>304.63999999999999</ele>
        <time>2023-05-24T09:35:11Z</time>
      </trkpt>
      <trkpt lat="50.680234143510461" lon="6.146840695291758">
        <ele>303.44999999999999</ele>
        <time>2023-05-24T09:34:35Z</time>
      </trkpt>
      <trkpt lat="50.680706212297082" lon="6.146341217681766">
        <ele>299.80000000000001</ele>
        <time>2023-05-24T09:33:57Z</time>
      </trkpt>
      <trkpt lat="50.681132348254323" lon="6.145971994847059">
        <ele>297.69</ele>
        <time>2023-05-24T09:33:26Z</time>
      </trkpt>
      <trkpt lat="50.681463349610567" lon="6.145506296306849">
        <ele>294.17000000000002</ele>
        <time>2023-05-24T09:32:54Z</time>
      </trkpt>
      <trkpt lat="50.681568961590528" lon="6.144705740734935">
        <ele>294.18000000000001</ele>
        <time>2023-05-24T09:32:23Z</time>
      </trkpt>
      <trkpt lat="50.681854700669646" lon="6.144274827092886">
        <ele>296.32999999999998</ele>
        <time>2023-05-24T09:31:50Z</time>
      </trkpt>
      <trkpt lat="50.682327775284648" lon="6.144392257556319">
        <ele>295.06</ele>
        <time>2023-05-24T09:31:21Z</time>
      </trkpt>
      <trkpt lat="50.682813338935375" lon="6.144498288631439">
        <ele>295.05000000000001</ele>
        <time>2023-05-24T09:30:52Z</time>
      </trkpt>
      <trkpt lat="50.683273170143366" lon="6.144230989739299">
        <ele>294.64999999999998</ele>
        <time>2023-05-24T09:30:17Z</time>
      </trkpt>
      <trkpt lat="50.683704586699605" lon="6.143993530422449">
        <ele>295.01999999999998</ele>
        <time>2023-05-24T09:29:48Z</time>
      </trkpt>
      <trkpt lat="50.68414555862546" lon="6.143760178238154">
        <ele>295.36000000000001</ele>
        <time>2023-05-24T09:29:18Z</time>
      </trkpt>
      <trkpt lat="50.684600025415421" lon="6.143518947064877">
        <ele>295.08999999999997</ele>
        <time>2023-05-24T09:28:46Z</time>
      </trkpt>
      <trkpt lat="50.685047199949622" lon="6.14327184855938">
        <ele>294.08999999999997</ele>
        <time>2023-05-24T09:28:15Z</time>
      </trkpt>
      <trkpt lat="50.685512227937579" lon="6.143042938783765">
        <ele>292.74000000000001</ele>
        <time>2023-05-24T09:27:43Z</time>
      </trkpt>
      <trkpt lat="50.685945153236389" lon="6.142795588821173">
        <ele>292.22000000000003</ele>
        <time>2023-05-24T09:27:13Z</time>
      </trkpt>
      <trkpt lat="50.68637958727777" lon="6.142535414546728">
        <ele>289.95999999999998</ele>
        <time>2023-05-24T09:26:42Z</time>
      </trkpt>
      <trkpt lat="50.686821984127164" lon="6.142324609681964">
        <ele>288.50999999999999</ele>
        <time>2023-05-24T09:26:12Z</time>
      </trkpt>
      <trkpt lat="50.687252897769213" lon="6.142540443688631">
        <ele>287.07999999999998</ele>
        <time>2023-05-24T09:25:43Z</time>
      </trkpt>
      <trkpt lat="50.687659671530128" lon="6.14283406175673">
        <ele>287.06</ele>
        <time>2023-05-24T09:21:50Z</time>
      </trkpt>
      <trkpt lat="50.688083712011576" lon="6.143143018707633">
        <ele>285.55000000000001</ele>
        <time>2023-05-24T09:21:19Z</time>
      </trkpt>
      <trkpt lat="50.688488390296698" lon="6.143468823283911">
        <ele>282.74000000000001</ele>
        <time>2023-05-24T09:20:45Z</time>
      </trkpt>
      <trkpt lat="50.688925171270967" lon="6.143561024218798">
        <ele>278.69999999999999</ele>
        <time>2023-05-24T09:19:58Z</time>
      </trkpt>
      <trkpt lat="50.689313840121031" lon="6.143092894926667">
        <ele>268.89999999999998</ele>
        <time>2023-05-24T09:19:26Z</time>
      </trkpt>
      <trkpt lat="50.689722876995802" lon="6.142808413133025">
        <ele>264.62</ele>
        <time>2023-05-24T09:18:56Z</time>
      </trkpt>
      <trkpt lat="50.690116994082928" lon="6.14244413562119">
        <ele>259.41000000000003</ele>
        <time>2023-05-24T09:18:23Z</time>
      </trkpt>
      <trkpt lat="50.690428717061877" lon="6.141960415989161">
        <ele>255.80000000000001</ele>
        <time>2023-05-24T09:17:50Z</time>
      </trkpt>
      <trkpt lat="50.69055151194334" lon="6.141270836815238">
        <ele>251.55000000000001</ele>
        <time>2023-05-24T09:17:19Z</time>
      </trkpt>
      <trkpt lat="50.690808417275548" lon="6.140713272616267">
        <ele>252.12</ele>
        <time>2023-05-24T09:16:26Z</time>
      </trkpt>
      <trkpt lat="50.691219046711922" lon="6.140334494411945">
        <ele>252.16999999999999</ele>
        <time>2023-05-24T09:15:55Z</time>
      </trkpt>
      <trkpt lat="50.691609811037779" lon="6.139942808076739">
        <ele>252.09999999999999</ele>
        <time>2023-05-24T09:15:25Z</time>
      </trkpt>
      <trkpt lat="50.692012393847108" lon="6.13961792550981">
        <ele>252.53999999999999</ele>
        <time>2023-05-24T09:14:55Z</time>
      </trkpt>
      <trkpt lat="50.692104510962963" lon="6.139229508116841">
        <ele>255.88</ele>
        <time>2023-05-24T09:14:23Z</time>
      </trkpt>
      <trkpt lat="50.691712321713567" lon="6.13885466940701">
        <ele>257.60000000000002</ele>
        <time>2023-05-24T09:13:52Z</time>
      </trkpt>
      <trkpt lat="50.691375620663166" lon="6.138357119634748">
        <ele>259.74000000000001</ele>
        <time>2023-05-24T09:13:21Z</time>
      </trkpt>
      <trkpt lat="50.691034058108926" lon="6.137856217101216">
        <ele>260.29000000000002</ele>
        <time>2023-05-24T09:12:01Z</time>
      </trkpt>
      <trkpt lat="50.691177472472191" lon="6.137246768921614">
        <ele>265.10000000000002</ele>
        <time>2023-05-24T09:11:31Z</time>
      </trkpt>
      <trkpt lat="50.691446783021092" lon="6.136644361540675">
        <ele>269.26999999999998</ele>
        <time>2023-05-24T09:11:00Z</time>
      </trkpt>
      <trkpt lat="50.691542336717248" lon="6.135964840650559">
        <ele>271.13999999999999</ele>
        <time>2023-05-24T09:10:28Z</time>
      </trkpt>
      <trkpt lat="50.691021485254169" lon="6.135634006932378">
        <ele>271.43000000000001</ele>
        <time>2023-05-24T09:09:49Z</time>
      </trkpt>
      <trkpt lat="50.690661398693919" lon="6.134937889873982">
        <ele>274.16000000000003</ele>
        <time>2023-05-24T09:09:10Z</time>
      </trkpt>
      <trkpt lat="50.690291924402118" lon="6.134286783635616">
        <ele>276.16000000000003</ele>
        <time>2023-05-24T09:08:32Z</time>
      </trkpt>
      <trkpt lat="50.690270969644189" lon="6.133718909695745">
        <ele>276.06999999999999</ele>
        <time>2023-05-24T09:07:40Z</time>
      </trkpt>
      <trkpt lat="50.689749782904983" lon="6.133555630221963">
        <ele>275.06999999999999</ele>
        <time>2023-05-24T09:07:03Z</time>
      </trkpt>
      <trkpt lat="50.689246449619532" lon="6.133085321635008">
        <ele>275.38999999999999</ele>
        <time>2023-05-24T09:06:19Z</time>
      </trkpt>
      <trkpt lat="50.688963141292334" lon="6.132365483790636">
        <ele>276.31</ele>
        <time>2023-05-24T09:05:42Z</time>
      </trkpt>
      <trkpt lat="50.688698189333081" lon="6.131562329828739">
        <ele>270.06999999999999</ele>
        <time>2023-05-24T09:05:03Z</time>
      </trkpt>
      <trkpt lat="50.688261408358812" lon="6.130835367366672">
        <ele>275.87</ele>
        <time>2023-05-24T09:04:19Z</time>
      </trkpt>
      <trkpt lat="50.688243303447962" lon="6.129878908395767">
        <ele>280.50999999999999</ele>
        <time>2023-05-24T09:03:37Z</time>
      </trkpt>
      <trkpt lat="50.688677737489343" lon="6.129294186830521">
        <ele>280.99000000000001</ele>
        <time>2023-05-24T09:03:03Z</time>
      </trkpt>
      <trkpt lat="50.689122565090656" lon="6.128823878243566">
        <ele>284.11000000000001</ele>
        <time>2023-05-24T09:02:22Z</time>
      </trkpt>
      <trkpt lat="50.689103454351425" lon="6.128243515267968">
        <ele>283.91000000000003</ele>
        <time>2023-05-24T09:01:18Z</time>
      </trkpt>
      <trkpt lat="50.688729621469975" lon="6.127624260261655">
        <ele>283.44999999999999</ele>
        <time>2023-05-24T09:00:39Z</time>
      </trkpt>
      <trkpt lat="50.688539268448949" lon="6.126903584226966">
        <ele>283.49000000000001</ele>
        <time>2023-05-24T09:00:07Z</time>
      </trkpt>
      <trkpt lat="50.688500627875328" lon="6.12612733617425">
        <ele>284.37</ele>
        <time>2023-05-24T08:59:37Z</time>
      </trkpt>
      <trkpt lat="50.688400715589523" lon="6.125374641269445">
        <ele>283.97000000000003</ele>
        <time>2023-05-24T08:59:08Z</time>
      </trkpt>
      <trkpt lat="50.688731633126736" lon="6.124755050987005">
        <ele>282.64999999999998</ele>
        <time>2023-05-24T08:58:33Z</time>
      </trkpt>
      <trkpt lat="50.688881333917379" lon="6.123981988057494">
        <ele>281.75999999999999</ele>
        <time>2023-05-24T08:57:53Z</time>
      </trkpt>
      <trkpt lat="50.689198169857264" lon="6.123448815196753">
        <ele>279.75</ele>
        <time>2023-05-24T08:57:22Z</time>
      </trkpt>
      <trkpt lat="50.689580300822854" lon="6.123064085841179">
        <ele>277.11000000000001</ele>
        <time>2023-05-24T08:56:55Z</time>
      </trkpt>
      <trkpt lat="50.68995539098978" lon="6.122661754488945">
        <ele>277.32999999999998</ele>
        <time>2023-05-24T08:56:28Z</time>
      </trkpt>
      <trkpt lat="50.690224030986428" lon="6.122095892205834">
        <ele>279.36000000000001</ele>
        <time>2023-05-24T08:55:59Z</time>
      </trkpt>
      <trkpt lat="50.690297037363052" lon="6.121411928907037">
        <ele>280.07999999999998</ele>
        <time>2023-05-24T08:55:13Z</time>
      </trkpt>
      <trkpt lat="50.68996025249362" lon="6.121143959462643">
        <ele>279.05000000000001</ele>
        <time>2023-05-24T08:54:40Z</time>
      </trkpt>
      <trkpt lat="50.689592203125358" lon="6.120692426338792">
        <ele>277.88</ele>
        <time>2023-05-24T08:54:08Z</time>
      </trkpt>
      <trkpt lat="50.689333453774452" lon="6.120060263201594">
        <ele>277.42000000000002</ele>
        <time>2023-05-24T08:53:40Z</time>
      </trkpt>
      <trkpt lat="50.68902893923223" lon="6.119462214410305">
        <ele>278.14999999999998</ele>
        <time>2023-05-24T08:53:08Z</time>
      </trkpt>
      <trkpt lat="50.688803801313043" lon="6.118813622742891">
        <ele>274.52999999999997</ele>
        <time>2023-05-24T08:52:36Z</time>
      </trkpt>
      <trkpt lat="50.688726017251611" lon="6.118090767413378">
        <ele>274.05000000000001</ele>
        <time>2023-05-24T08:52:09Z</time>
      </trkpt>
      <trkpt lat="50.688533652573824" lon="6.117410073056817">
        <ele>275.13999999999999</ele>
        <time>2023-05-24T08:51:40Z</time>
      </trkpt>
      <trkpt lat="50.688383113592863" lon="6.116775814443827">
        <ele>267.36000000000001</ele>
        <time>2023-05-24T08:49:42Z</time>
      </trkpt>
      <trkpt lat="50.687410812824965" lon="6.114557543769479">
        <ele>272.91000000000003</ele>
        <time>2023-05-24T08:44:52Z</time>
      </trkpt>
      <trkpt lat="50.687185591086745" lon="6.113927979022265">
        <ele>272.80000000000001</ele>
        <time>2023-05-24T08:44:25Z</time>
      </trkpt>
      <trkpt lat="50.686940504238009" lon="6.113315680995584">
        <ele>272</ele>
        <time>2023-05-24T08:43:58Z</time>
      </trkpt>
      <trkpt lat="50.68657161667943" lon="6.11286255531013">
        <ele>270.91000000000003</ele>
        <time>2023-05-24T08:43:30Z</time>
      </trkpt>
      <trkpt lat="50.686374809592962" lon="6.112211784347892">
        <ele>268.73000000000002</ele>
        <time>2023-05-24T08:43:03Z</time>
      </trkpt>
      <trkpt lat="50.686268359422684" lon="6.111506279557943">
        <ele>268.30000000000001</ele>
        <time>2023-05-24T08:42:37Z</time>
      </trkpt>
      <trkpt lat="50.68611622788012" lon="6.110769677907229">
        <ele>268.52999999999997</ele>
        <time>2023-05-24T08:42:08Z</time>
      </trkpt>
      <trkpt lat="50.685923779383302" lon="6.110064256936312">
        <ele>268.57999999999998</ele>
        <time>2023-05-24T08:41:53Z</time>
      </trkpt>
      <trkpt lat="50.685667376965284" lon="6.109361685812473">
        <ele>268.64999999999998</ele>
        <time>2023-05-24T08:41:40Z</time>
      </trkpt>
      <trkpt lat="50.685350960120559" lon="6.108611505478621">
        <ele>269.47000000000003</ele>
        <time>2023-05-24T08:41:27Z</time>
      </trkpt>
      <trkpt lat="50.685100592672825" lon="6.107905162498355">
        <ele>271.18000000000001</ele>
        <time>2023-05-24T08:41:09Z</time>
      </trkpt>
      <trkpt lat="50.685537625104189" lon="6.107717743143439">
        <ele>273.38</ele>
        <time>2023-05-24T08:40:48Z</time>
      </trkpt>
      <trkpt lat="50.686020758002996" lon="6.107601150870323">
        <ele>274.86000000000001</ele>
        <time>2023-05-24T08:40:29Z</time>
      </trkpt>
      <trkpt lat="50.68649928085506" lon="6.107595367357135">
        <ele>276.69999999999999</ele>
        <time>2023-05-24T08:40:16Z</time>
      </trkpt>
      <trkpt lat="50.68690488114953" lon="6.107214577496052">
        <ele>276.61000000000001</ele>
        <time>2023-05-24T08:40:04Z</time>
      </trkpt>
      <trkpt lat="50.687261866405606" lon="6.106682913377881">
        <ele>278.83999999999997</ele>
        <time>2023-05-24T08:39:52Z</time>
      </trkpt>
      <trkpt lat="50.687655648216605" lon="6.106207827106118">
        <ele>280.06</ele>
        <time>2023-05-24T08:39:39Z</time>
      </trkpt>
      <trkpt lat="50.688137440010905" lon="6.106204390525818">
        <ele>280.97000000000003</ele>
        <time>2023-05-24T08:39:26Z</time>
      </trkpt>
      <trkpt lat="50.688589308410883" lon="6.106241689994931">
        <ele>280.43000000000001</ele>
        <time>2023-05-24T08:38:58Z</time>
      </trkpt>
      <trkpt lat="50.688840933144093" lon="6.106536816805601">
        <ele>280.50999999999999</ele>
        <time>2023-05-24T08:38:05Z</time>
      </trkpt>
      <trkpt lat="50.688548153266311" lon="6.106212940067053">
        <ele>280.04000000000002</ele>
        <time>2023-05-24T08:37:12Z</time>
      </trkpt>
      <trkpt lat="50.688068624585867" lon="6.106269350275397">
        <ele>278.19</ele>
        <time>2023-05-24T08:36:50Z</time>
      </trkpt>
      <trkpt lat="50.687564117833972" lon="6.106303967535496">
        <ele>279.27999999999997</ele>
        <time>2023-05-24T08:36:35Z</time>
      </trkpt>
      <trkpt lat="50.687187016010284" lon="6.106780730187893">
        <ele>278.17000000000002</ele>
        <time>2023-05-24T08:36:20Z</time>
      </trkpt>
      <trkpt lat="50.686841178685427" lon="6.107318764552474">
        <ele>277</ele>
        <time>2023-05-24T08:36:06Z</time>
      </trkpt>
      <trkpt lat="50.686455694958568" lon="6.107604838907719">
        <ele>275.41000000000003</ele>
        <time>2023-05-24T08:35:36Z</time>
      </trkpt>
      <trkpt lat="50.686767334118485" lon="6.10740945674479">
        <ele>275.36000000000001</ele>
        <time>2023-05-24T08:34:49Z</time>
      </trkpt>
      <trkpt lat="50.687146866694093" lon="6.106839571148157">
        <ele>277.17000000000002</ele>
        <time>2023-05-24T08:34:13Z</time>
      </trkpt>
      <trkpt lat="50.68749999627471" lon="6.106361551210284">
        <ele>278.24000000000001</ele>
        <time>2023-05-24T08:33:42Z</time>
      </trkpt>
      <trkpt lat="50.687951613217592" lon="6.106211682781577">
        <ele>279.94</ele>
        <time>2023-05-24T08:33:10Z</time>
      </trkpt>
      <trkpt lat="50.688409013673663" lon="6.106233224272728">
        <ele>279.58999999999997</ele>
        <time>2023-05-24T08:32:37Z</time>
      </trkpt>
      <trkpt lat="50.68885694257915" lon="6.106266500428319">
        <ele>279.48000000000002</ele>
        <time>2023-05-24T08:31:56Z</time>
      </trkpt>
      <trkpt lat="50.688800532370806" lon="6.106449812650681">
        <ele>279.56</ele>
        <time>2023-05-24T08:29:00Z</time>
      </trkpt>
      <trkpt lat="50.688788965344429" lon="6.106459703296423">
        <ele>280.93000000000001</ele>
        <time>2023-05-24T08:24:41Z</time>
      </trkpt>
    </trkseg>
  </trk>

</gpx>